<?xml version="1.0" encoding="UTF-8" standalone="no" ?>
<gpx xmlns="http://www.topografix.com/GPX/1/1" xmlns:xsi="http://www.w3.org/2001/XMLSchema-instance" xsi:schemaLocation="http://www.topografix.com/GPX/1/1 http://www.topografix.com/GPX/1/1/gpx.xsd" version="1.1" creator="VisuGPX - https://www.visugpx.com">
  <metadata>
    <name>crcuit floirac n° 3</name>
    <desc><![CDATA[circuit Floirac]]></desc>
  </metadata>
  <trk>
    <name><![CDATA[Tracé 13 janv. 2016 1:12:15 PM]]></name>
    <trkseg>
      <trkpt lat="44.84091" lon="-0.5227">
        <ele>4</ele>
        <time>2016-01-13T12:12:15Z</time>
      </trkpt>
      <trkpt lat="44.84091" lon="-0.5227">
        <ele>4</ele>
        <time>2016-01-13T12:12:15Z</time>
      </trkpt>
      <trkpt lat="44.84115" lon="-0.52322">
        <ele>3</ele>
        <time>2016-01-13T12:12:24Z</time>
      </trkpt>
      <trkpt lat="44.84094" lon="-0.5228">
        <ele>3</ele>
        <time>2016-01-13T12:12:28Z</time>
      </trkpt>
      <trkpt lat="44.84087" lon="-0.52272">
        <ele>3</ele>
        <time>2016-01-13T12:12:47Z</time>
      </trkpt>
      <trkpt lat="44.84079" lon="-0.52272">
        <ele>3</ele>
        <time>2016-01-13T12:12:55Z</time>
      </trkpt>
      <trkpt lat="44.84071" lon="-0.52276">
        <ele>3</ele>
        <time>2016-01-13T12:13:03Z</time>
      </trkpt>
      <trkpt lat="44.84063" lon="-0.52278">
        <ele>3</ele>
        <time>2016-01-13T12:13:10Z</time>
      </trkpt>
      <trkpt lat="44.84055" lon="-0.52279">
        <ele>3</ele>
        <time>2016-01-13T12:13:16Z</time>
      </trkpt>
      <trkpt lat="44.84046" lon="-0.52277">
        <ele>3</ele>
        <time>2016-01-13T12:13:23Z</time>
      </trkpt>
      <trkpt lat="44.84039" lon="-0.5227">
        <ele>3</ele>
        <time>2016-01-13T12:13:30Z</time>
      </trkpt>
      <trkpt lat="44.84036" lon="-0.52259">
        <ele>3</ele>
        <time>2016-01-13T12:13:34Z</time>
      </trkpt>
      <trkpt lat="44.84029" lon="-0.52251">
        <ele>2</ele>
        <time>2016-01-13T12:13:38Z</time>
      </trkpt>
      <trkpt lat="44.84031" lon="-0.52239">
        <ele>2</ele>
        <time>2016-01-13T12:13:43Z</time>
      </trkpt>
      <trkpt lat="44.84035" lon="-0.5223">
        <ele>1</ele>
        <time>2016-01-13T12:13:48Z</time>
      </trkpt>
      <trkpt lat="44.84038" lon="-0.52218">
        <ele>64.4</ele>
        <time>2016-01-13T12:13:55Z</time>
      </trkpt>
      <trkpt lat="44.8404" lon="-0.52206">
        <ele>64.7</ele>
        <time>2016-01-13T12:14:02Z</time>
      </trkpt>
      <trkpt lat="44.84039" lon="-0.52195">
        <ele>65.2</ele>
        <time>2016-01-13T12:14:08Z</time>
      </trkpt>
      <trkpt lat="44.84039" lon="-0.52182">
        <ele>1</ele>
        <time>2016-01-13T12:14:16Z</time>
      </trkpt>
      <trkpt lat="44.84032" lon="-0.52176">
        <ele>3</ele>
        <time>2016-01-13T12:14:27Z</time>
      </trkpt>
      <trkpt lat="44.84023" lon="-0.52174">
        <ele>4</ele>
        <time>2016-01-13T12:14:33Z</time>
      </trkpt>
      <trkpt lat="44.84015" lon="-0.52179">
        <ele>5</ele>
        <time>2016-01-13T12:14:38Z</time>
      </trkpt>
      <trkpt lat="44.84008" lon="-0.52183">
        <ele>6</ele>
        <time>2016-01-13T12:14:44Z</time>
      </trkpt>
      <trkpt lat="44.84001" lon="-0.52189">
        <ele>7</ele>
        <time>2016-01-13T12:14:51Z</time>
      </trkpt>
      <trkpt lat="44.83997" lon="-0.522">
        <ele>9</ele>
        <time>2016-01-13T12:14:58Z</time>
      </trkpt>
      <trkpt lat="44.83998" lon="-0.52212">
        <ele>10</ele>
        <time>2016-01-13T12:15:05Z</time>
      </trkpt>
      <trkpt lat="44.83999" lon="-0.52223">
        <ele>10</ele>
        <time>2016-01-13T12:15:13Z</time>
      </trkpt>
      <trkpt lat="44.83999" lon="-0.52236">
        <ele>10</ele>
        <time>2016-01-13T12:15:22Z</time>
      </trkpt>
      <trkpt lat="44.83999" lon="-0.52246">
        <ele>9</ele>
        <time>2016-01-13T12:15:28Z</time>
      </trkpt>
      <trkpt lat="44.83996" lon="-0.52257">
        <ele>9</ele>
        <time>2016-01-13T12:15:33Z</time>
      </trkpt>
      <trkpt lat="44.83996" lon="-0.52269">
        <ele>8</ele>
        <time>2016-01-13T12:15:40Z</time>
      </trkpt>
      <trkpt lat="44.83994" lon="-0.52281">
        <ele>8</ele>
        <time>2016-01-13T12:15:49Z</time>
      </trkpt>
      <trkpt lat="44.83994" lon="-0.52293">
        <ele>6</ele>
        <time>2016-01-13T12:15:57Z</time>
      </trkpt>
      <trkpt lat="44.83992" lon="-0.52304">
        <ele>6</ele>
        <time>2016-01-13T12:16:03Z</time>
      </trkpt>
      <trkpt lat="44.83996" lon="-0.52313">
        <ele>5</ele>
        <time>2016-01-13T12:16:08Z</time>
      </trkpt>
      <trkpt lat="44.84005" lon="-0.52319">
        <ele>5</ele>
        <time>2016-01-13T12:16:13Z</time>
      </trkpt>
      <trkpt lat="44.84011" lon="-0.52328">
        <ele>5</ele>
        <time>2016-01-13T12:16:20Z</time>
      </trkpt>
      <trkpt lat="44.84018" lon="-0.52335">
        <ele>4</ele>
        <time>2016-01-13T12:16:28Z</time>
      </trkpt>
      <trkpt lat="44.84026" lon="-0.52339">
        <ele>4</ele>
        <time>2016-01-13T12:16:36Z</time>
      </trkpt>
      <trkpt lat="44.84034" lon="-0.52334">
        <ele>3</ele>
        <time>2016-01-13T12:16:45Z</time>
      </trkpt>
      <trkpt lat="44.84043" lon="-0.52335">
        <ele>3</ele>
        <time>2016-01-13T12:16:53Z</time>
      </trkpt>
      <trkpt lat="44.84051" lon="-0.52332">
        <ele>2</ele>
        <time>2016-01-13T12:16:59Z</time>
      </trkpt>
      <trkpt lat="44.84059" lon="-0.52331">
        <ele>1</ele>
        <time>2016-01-13T12:17:05Z</time>
      </trkpt>
      <trkpt lat="44.84067" lon="-0.52328">
        <ele>61.2</ele>
        <time>2016-01-13T12:17:13Z</time>
      </trkpt>
      <trkpt lat="44.84075" lon="-0.52326">
        <ele>60.6</ele>
        <time>2016-01-13T12:17:19Z</time>
      </trkpt>
      <trkpt lat="44.84084" lon="-0.52325">
        <ele>60</ele>
        <time>2016-01-13T12:17:24Z</time>
      </trkpt>
      <trkpt lat="44.84092" lon="-0.52324">
        <ele>59.3</ele>
        <time>2016-01-13T12:17:30Z</time>
      </trkpt>
      <trkpt lat="44.841" lon="-0.52321">
        <ele>58.8</ele>
        <time>2016-01-13T12:17:37Z</time>
      </trkpt>
      <trkpt lat="44.84107" lon="-0.52317">
        <ele>58.5</ele>
        <time>2016-01-13T12:17:44Z</time>
      </trkpt>
      <trkpt lat="44.84116" lon="-0.52313">
        <ele>3</ele>
        <time>2016-01-13T12:17:58Z</time>
      </trkpt>
      <trkpt lat="44.84124" lon="-0.52314">
        <ele>5</ele>
        <time>2016-01-13T12:18:06Z</time>
      </trkpt>
      <trkpt lat="44.84133" lon="-0.52313">
        <ele>7</ele>
        <time>2016-01-13T12:18:15Z</time>
      </trkpt>
      <trkpt lat="44.84141" lon="-0.52311">
        <ele>10</ele>
        <time>2016-01-13T12:18:25Z</time>
      </trkpt>
      <trkpt lat="44.84149" lon="-0.52313">
        <ele>56.3</ele>
        <time>2016-01-13T12:18:36Z</time>
      </trkpt>
      <trkpt lat="44.84153" lon="-0.52325">
        <ele>-7</ele>
        <time>2016-01-13T12:18:44Z</time>
      </trkpt>
      <trkpt lat="44.84157" lon="-0.52336">
        <ele>-11</ele>
        <time>2016-01-13T12:18:52Z</time>
      </trkpt>
      <trkpt lat="44.84159" lon="-0.52348">
        <ele>-14</ele>
        <time>2016-01-13T12:18:59Z</time>
      </trkpt>
      <trkpt lat="44.84165" lon="-0.52358">
        <ele>-17</ele>
        <time>2016-01-13T12:19:06Z</time>
      </trkpt>
      <trkpt lat="44.84171" lon="-0.52367">
        <ele>-15</ele>
        <time>2016-01-13T12:19:12Z</time>
      </trkpt>
      <trkpt lat="44.84173" lon="-0.52377">
        <ele>-7</ele>
        <time>2016-01-13T12:19:17Z</time>
      </trkpt>
      <trkpt lat="44.84178" lon="-0.52386">
        <ele>-7</ele>
        <time>2016-01-13T12:19:22Z</time>
      </trkpt>
      <trkpt lat="44.8418" lon="-0.52397">
        <ele>-11</ele>
        <time>2016-01-13T12:19:29Z</time>
      </trkpt>
      <trkpt lat="44.84184" lon="-0.52408">
        <ele>-13</ele>
        <time>2016-01-13T12:19:38Z</time>
      </trkpt>
      <trkpt lat="44.8419" lon="-0.52416">
        <ele>-15</ele>
        <time>2016-01-13T12:19:45Z</time>
      </trkpt>
      <trkpt lat="44.84197" lon="-0.52424">
        <ele>-19</ele>
        <time>2016-01-13T12:19:53Z</time>
      </trkpt>
      <trkpt lat="44.84204" lon="-0.52431">
        <ele>-23</ele>
        <time>2016-01-13T12:19:59Z</time>
      </trkpt>
      <trkpt lat="44.84211" lon="-0.52435">
        <ele>-21</ele>
        <time>2016-01-13T12:20:04Z</time>
      </trkpt>
      <trkpt lat="44.84218" lon="-0.5244">
        <ele>-21</ele>
        <time>2016-01-13T12:20:10Z</time>
      </trkpt>
      <trkpt lat="44.84225" lon="-0.52447">
        <ele>-17</ele>
        <time>2016-01-13T12:20:20Z</time>
      </trkpt>
      <trkpt lat="44.84232" lon="-0.52452">
        <ele>-18</ele>
        <time>2016-01-13T12:20:27Z</time>
      </trkpt>
      <trkpt lat="44.8424" lon="-0.52456">
        <ele>-15</ele>
        <time>2016-01-13T12:20:32Z</time>
      </trkpt>
      <trkpt lat="44.84246" lon="-0.52461">
        <ele>-16</ele>
        <time>2016-01-13T12:20:38Z</time>
      </trkpt>
      <trkpt lat="44.84253" lon="-0.52469">
        <ele>-10</ele>
        <time>2016-01-13T12:20:43Z</time>
      </trkpt>
      <trkpt lat="44.84258" lon="-0.52479">
        <ele>-7</ele>
        <time>2016-01-13T12:20:48Z</time>
      </trkpt>
      <trkpt lat="44.84263" lon="-0.52488">
        <ele>-9</ele>
        <time>2016-01-13T12:20:54Z</time>
      </trkpt>
      <trkpt lat="44.8427" lon="-0.52495">
        <ele>-8</ele>
        <time>2016-01-13T12:21:02Z</time>
      </trkpt>
      <trkpt lat="44.84278" lon="-0.52499">
        <ele>-8</ele>
        <time>2016-01-13T12:21:09Z</time>
      </trkpt>
      <trkpt lat="44.84286" lon="-0.52503">
        <ele>-12</ele>
        <time>2016-01-13T12:21:19Z</time>
      </trkpt>
      <trkpt lat="44.84293" lon="-0.52509">
        <ele>-18</ele>
        <time>2016-01-13T12:21:25Z</time>
      </trkpt>
      <trkpt lat="44.84302" lon="-0.52514">
        <ele>-21</ele>
        <time>2016-01-13T12:21:30Z</time>
      </trkpt>
      <trkpt lat="44.8431" lon="-0.52518">
        <ele>-22</ele>
        <time>2016-01-13T12:21:36Z</time>
      </trkpt>
      <trkpt lat="44.84318" lon="-0.52523">
        <ele>-22</ele>
        <time>2016-01-13T12:21:43Z</time>
      </trkpt>
      <trkpt lat="44.84325" lon="-0.52526">
        <ele>-19</ele>
        <time>2016-01-13T12:21:49Z</time>
      </trkpt>
      <trkpt lat="44.84333" lon="-0.52528">
        <ele>-24</ele>
        <time>2016-01-13T12:21:56Z</time>
      </trkpt>
      <trkpt lat="44.84341" lon="-0.5253">
        <ele>-26</ele>
        <time>2016-01-13T12:22:02Z</time>
      </trkpt>
      <trkpt lat="44.8435" lon="-0.52531">
        <ele>-25</ele>
        <time>2016-01-13T12:22:06Z</time>
      </trkpt>
      <trkpt lat="44.84358" lon="-0.52533">
        <ele>-27</ele>
        <time>2016-01-13T12:22:12Z</time>
      </trkpt>
      <trkpt lat="44.84366" lon="-0.52534">
        <ele>-26</ele>
        <time>2016-01-13T12:22:17Z</time>
      </trkpt>
      <trkpt lat="44.84375" lon="-0.52535">
        <ele>-25</ele>
        <time>2016-01-13T12:22:24Z</time>
      </trkpt>
      <trkpt lat="44.84383" lon="-0.52537">
        <ele>-26</ele>
        <time>2016-01-13T12:22:31Z</time>
      </trkpt>
      <trkpt lat="44.84392" lon="-0.52537">
        <ele>-29</ele>
        <time>2016-01-13T12:22:38Z</time>
      </trkpt>
      <trkpt lat="44.844" lon="-0.5254">
        <ele>-32</ele>
        <time>2016-01-13T12:22:47Z</time>
      </trkpt>
      <trkpt lat="44.84408" lon="-0.52544">
        <ele>-39</ele>
        <time>2016-01-13T12:22:53Z</time>
      </trkpt>
      <trkpt lat="44.84414" lon="-0.52553">
        <ele>-38</ele>
        <time>2016-01-13T12:22:59Z</time>
      </trkpt>
      <trkpt lat="44.84415" lon="-0.52564">
        <ele>-36</ele>
        <time>2016-01-13T12:23:04Z</time>
      </trkpt>
      <trkpt lat="44.84415" lon="-0.52575">
        <ele>-35</ele>
        <time>2016-01-13T12:23:10Z</time>
      </trkpt>
      <trkpt lat="44.84414" lon="-0.52587">
        <ele>-33</ele>
        <time>2016-01-13T12:23:16Z</time>
      </trkpt>
      <trkpt lat="44.84411" lon="-0.52598">
        <ele>-32</ele>
        <time>2016-01-13T12:23:23Z</time>
      </trkpt>
      <trkpt lat="44.84406" lon="-0.52608">
        <ele>-31</ele>
        <time>2016-01-13T12:23:29Z</time>
      </trkpt>
      <trkpt lat="44.84403" lon="-0.52619">
        <ele>-32</ele>
        <time>2016-01-13T12:23:35Z</time>
      </trkpt>
      <trkpt lat="44.844" lon="-0.52629">
        <ele>-31</ele>
        <time>2016-01-13T12:23:41Z</time>
      </trkpt>
      <trkpt lat="44.84396" lon="-0.52639">
        <ele>-31</ele>
        <time>2016-01-13T12:23:47Z</time>
      </trkpt>
      <trkpt lat="44.84393" lon="-0.52649">
        <ele>-31</ele>
        <time>2016-01-13T12:23:52Z</time>
      </trkpt>
      <trkpt lat="44.84391" lon="-0.52659">
        <ele>-31</ele>
        <time>2016-01-13T12:23:58Z</time>
      </trkpt>
      <trkpt lat="44.84388" lon="-0.52671">
        <ele>-30</ele>
        <time>2016-01-13T12:24:04Z</time>
      </trkpt>
      <trkpt lat="44.84386" lon="-0.52682">
        <ele>-30</ele>
        <time>2016-01-13T12:24:12Z</time>
      </trkpt>
      <trkpt lat="44.84383" lon="-0.52692">
        <ele>-29</ele>
        <time>2016-01-13T12:24:17Z</time>
      </trkpt>
      <trkpt lat="44.84379" lon="-0.52701">
        <ele>-31</ele>
        <time>2016-01-13T12:24:21Z</time>
      </trkpt>
      <trkpt lat="44.84378" lon="-0.52712">
        <ele>-29</ele>
        <time>2016-01-13T12:24:27Z</time>
      </trkpt>
      <trkpt lat="44.84377" lon="-0.52723">
        <ele>-29</ele>
        <time>2016-01-13T12:24:33Z</time>
      </trkpt>
      <trkpt lat="44.84376" lon="-0.52735">
        <ele>-31</ele>
        <time>2016-01-13T12:24:40Z</time>
      </trkpt>
      <trkpt lat="44.84377" lon="-0.52745">
        <ele>-33</ele>
        <time>2016-01-13T12:24:48Z</time>
      </trkpt>
      <trkpt lat="44.84376" lon="-0.52757">
        <ele>-34</ele>
        <time>2016-01-13T12:24:54Z</time>
      </trkpt>
      <trkpt lat="44.84377" lon="-0.52769">
        <ele>-33</ele>
        <time>2016-01-13T12:25:00Z</time>
      </trkpt>
      <trkpt lat="44.84377" lon="-0.5278">
        <ele>-33</ele>
        <time>2016-01-13T12:25:06Z</time>
      </trkpt>
      <trkpt lat="44.84378" lon="-0.52791">
        <ele>-32</ele>
        <time>2016-01-13T12:25:12Z</time>
      </trkpt>
      <trkpt lat="44.8438" lon="-0.52802">
        <ele>-30</ele>
        <time>2016-01-13T12:25:18Z</time>
      </trkpt>
      <trkpt lat="44.84381" lon="-0.52813">
        <ele>-32</ele>
        <time>2016-01-13T12:25:25Z</time>
      </trkpt>
      <trkpt lat="44.84381" lon="-0.52825">
        <ele>-34</ele>
        <time>2016-01-13T12:25:31Z</time>
      </trkpt>
      <trkpt lat="44.8438" lon="-0.52837">
        <ele>-37</ele>
        <time>2016-01-13T12:25:37Z</time>
      </trkpt>
      <trkpt lat="44.8438" lon="-0.52849">
        <ele>-37</ele>
        <time>2016-01-13T12:25:43Z</time>
      </trkpt>
      <trkpt lat="44.84382" lon="-0.5286">
        <ele>-38</ele>
        <time>2016-01-13T12:25:50Z</time>
      </trkpt>
      <trkpt lat="44.84382" lon="-0.52873">
        <ele>-38</ele>
        <time>2016-01-13T12:25:56Z</time>
      </trkpt>
      <trkpt lat="44.84381" lon="-0.52885">
        <ele>-39</ele>
        <time>2016-01-13T12:26:02Z</time>
      </trkpt>
      <trkpt lat="44.8438" lon="-0.52896">
        <ele>-39</ele>
        <time>2016-01-13T12:26:07Z</time>
      </trkpt>
      <trkpt lat="44.84379" lon="-0.52909">
        <ele>-39</ele>
        <time>2016-01-13T12:26:13Z</time>
      </trkpt>
      <trkpt lat="44.8438" lon="-0.52921">
        <ele>-42</ele>
        <time>2016-01-13T12:26:37Z</time>
      </trkpt>
      <trkpt lat="44.84374" lon="-0.52927">
        <ele>-39</ele>
        <time>2016-01-13T12:26:42Z</time>
      </trkpt>
      <trkpt lat="44.84372" lon="-0.52938">
        <ele>-38</ele>
        <time>2016-01-13T12:26:48Z</time>
      </trkpt>
      <trkpt lat="44.84375" lon="-0.52949">
        <ele>-39</ele>
        <time>2016-01-13T12:26:55Z</time>
      </trkpt>
      <trkpt lat="44.84376" lon="-0.52962">
        <ele>-41</ele>
        <time>2016-01-13T12:27:24Z</time>
      </trkpt>
      <trkpt lat="44.84371" lon="-0.52972">
        <ele>-41</ele>
        <time>2016-01-13T12:27:31Z</time>
      </trkpt>
      <trkpt lat="44.84372" lon="-0.52983">
        <ele>-42</ele>
        <time>2016-01-13T12:27:37Z</time>
      </trkpt>
      <trkpt lat="44.84372" lon="-0.52994">
        <ele>-42</ele>
        <time>2016-01-13T12:27:43Z</time>
      </trkpt>
      <trkpt lat="44.8437" lon="-0.53006">
        <ele>-41</ele>
        <time>2016-01-13T12:27:50Z</time>
      </trkpt>
      <trkpt lat="44.84368" lon="-0.53017">
        <ele>-41</ele>
        <time>2016-01-13T12:27:56Z</time>
      </trkpt>
      <trkpt lat="44.84365" lon="-0.53027">
        <ele>-43</ele>
        <time>2016-01-13T12:28:02Z</time>
      </trkpt>
      <trkpt lat="44.84361" lon="-0.53038">
        <ele>-43</ele>
        <time>2016-01-13T12:28:09Z</time>
      </trkpt>
      <trkpt lat="44.84353" lon="-0.53044">
        <ele>-44</ele>
        <time>2016-01-13T12:28:17Z</time>
      </trkpt>
      <trkpt lat="44.84345" lon="-0.53047">
        <ele>-45</ele>
        <time>2016-01-13T12:28:23Z</time>
      </trkpt>
      <trkpt lat="44.84337" lon="-0.53047">
        <ele>-47</ele>
        <time>2016-01-13T12:28:30Z</time>
      </trkpt>
      <trkpt lat="44.84328" lon="-0.53048">
        <ele>-47</ele>
        <time>2016-01-13T12:28:36Z</time>
      </trkpt>
      <trkpt lat="44.8432" lon="-0.53049">
        <ele>-46</ele>
        <time>2016-01-13T12:28:43Z</time>
      </trkpt>
      <trkpt lat="44.84311" lon="-0.53049">
        <ele>-43</ele>
        <time>2016-01-13T12:28:50Z</time>
      </trkpt>
      <trkpt lat="44.84303" lon="-0.5305">
        <ele>-43</ele>
        <time>2016-01-13T12:28:57Z</time>
      </trkpt>
      <trkpt lat="44.84295" lon="-0.53051">
        <ele>-41</ele>
        <time>2016-01-13T12:29:03Z</time>
      </trkpt>
      <trkpt lat="44.84286" lon="-0.53052">
        <ele>-39</ele>
        <time>2016-01-13T12:29:09Z</time>
      </trkpt>
      <trkpt lat="44.84279" lon="-0.53054">
        <ele>-38</ele>
        <time>2016-01-13T12:29:14Z</time>
      </trkpt>
      <trkpt lat="44.84272" lon="-0.53058">
        <ele>-38</ele>
        <time>2016-01-13T12:29:19Z</time>
      </trkpt>
      <trkpt lat="44.84264" lon="-0.53059">
        <ele>-39</ele>
        <time>2016-01-13T12:29:25Z</time>
      </trkpt>
      <trkpt lat="44.84255" lon="-0.53059">
        <ele>-40</ele>
        <time>2016-01-13T12:29:31Z</time>
      </trkpt>
      <trkpt lat="44.84246" lon="-0.53061">
        <ele>-41</ele>
        <time>2016-01-13T12:29:38Z</time>
      </trkpt>
      <trkpt lat="44.84239" lon="-0.53062">
        <ele>-40</ele>
        <time>2016-01-13T12:29:43Z</time>
      </trkpt>
      <trkpt lat="44.8423" lon="-0.53059">
        <ele>-42</ele>
        <time>2016-01-13T12:29:49Z</time>
      </trkpt>
      <trkpt lat="44.84222" lon="-0.53058">
        <ele>-44</ele>
        <time>2016-01-13T12:29:55Z</time>
      </trkpt>
      <trkpt lat="44.84215" lon="-0.53058">
        <ele>-47</ele>
        <time>2016-01-13T12:30:01Z</time>
      </trkpt>
      <trkpt lat="44.84207" lon="-0.5306">
        <ele>-46</ele>
        <time>2016-01-13T12:30:06Z</time>
      </trkpt>
      <trkpt lat="44.84199" lon="-0.5306">
        <ele>-45</ele>
        <time>2016-01-13T12:30:12Z</time>
      </trkpt>
      <trkpt lat="44.8419" lon="-0.5306">
        <ele>-40</ele>
        <time>2016-01-13T12:30:20Z</time>
      </trkpt>
      <trkpt lat="44.84182" lon="-0.53058">
        <ele>-37</ele>
        <time>2016-01-13T12:30:28Z</time>
      </trkpt>
      <trkpt lat="44.84174" lon="-0.53057">
        <ele>-37</ele>
        <time>2016-01-13T12:30:36Z</time>
      </trkpt>
      <trkpt lat="44.84165" lon="-0.53055">
        <ele>-37</ele>
        <time>2016-01-13T12:30:44Z</time>
      </trkpt>
      <trkpt lat="44.84156" lon="-0.53053">
        <ele>-39</ele>
        <time>2016-01-13T12:30:52Z</time>
      </trkpt>
      <trkpt lat="44.84148" lon="-0.53053">
        <ele>-42</ele>
        <time>2016-01-13T12:30:59Z</time>
      </trkpt>
      <trkpt lat="44.8414" lon="-0.53052">
        <ele>-44</ele>
        <time>2016-01-13T12:31:05Z</time>
      </trkpt>
      <trkpt lat="44.84132" lon="-0.53054">
        <ele>-48</ele>
        <time>2016-01-13T12:31:10Z</time>
      </trkpt>
      <trkpt lat="44.84124" lon="-0.53057">
        <ele>-49</ele>
        <time>2016-01-13T12:31:16Z</time>
      </trkpt>
      <trkpt lat="44.84116" lon="-0.53061">
        <ele>-50</ele>
        <time>2016-01-13T12:31:22Z</time>
      </trkpt>
      <trkpt lat="44.84107" lon="-0.53063">
        <ele>-48</ele>
        <time>2016-01-13T12:31:27Z</time>
      </trkpt>
      <trkpt lat="44.84099" lon="-0.53064">
        <ele>-47</ele>
        <time>2016-01-13T12:31:34Z</time>
      </trkpt>
      <trkpt lat="44.84091" lon="-0.5307">
        <ele>-46</ele>
        <time>2016-01-13T12:31:40Z</time>
      </trkpt>
      <trkpt lat="44.84083" lon="-0.53073">
        <ele>-44</ele>
        <time>2016-01-13T12:31:47Z</time>
      </trkpt>
      <trkpt lat="44.84075" lon="-0.53073">
        <ele>-43</ele>
        <time>2016-01-13T12:31:53Z</time>
      </trkpt>
      <trkpt lat="44.84067" lon="-0.53072">
        <ele>-43</ele>
        <time>2016-01-13T12:31:59Z</time>
      </trkpt>
      <trkpt lat="44.8406" lon="-0.53074">
        <ele>-42</ele>
        <time>2016-01-13T12:32:04Z</time>
      </trkpt>
      <trkpt lat="44.84051" lon="-0.53073">
        <ele>-42</ele>
        <time>2016-01-13T12:32:10Z</time>
      </trkpt>
      <trkpt lat="44.84043" lon="-0.53072">
        <ele>-43</ele>
        <time>2016-01-13T12:32:16Z</time>
      </trkpt>
      <trkpt lat="44.84035" lon="-0.53071">
        <ele>-43</ele>
        <time>2016-01-13T12:32:22Z</time>
      </trkpt>
      <trkpt lat="44.84026" lon="-0.53068">
        <ele>-42</ele>
        <time>2016-01-13T12:32:28Z</time>
      </trkpt>
      <trkpt lat="44.84019" lon="-0.53065">
        <ele>-45</ele>
        <time>2016-01-13T12:32:34Z</time>
      </trkpt>
      <trkpt lat="44.84011" lon="-0.53062">
        <ele>-46</ele>
        <time>2016-01-13T12:32:41Z</time>
      </trkpt>
      <trkpt lat="44.84004" lon="-0.53057">
        <ele>-44</ele>
        <time>2016-01-13T12:32:47Z</time>
      </trkpt>
      <trkpt lat="44.83995" lon="-0.53057">
        <ele>-43</ele>
        <time>2016-01-13T12:32:53Z</time>
      </trkpt>
      <trkpt lat="44.83987" lon="-0.53054">
        <ele>-43</ele>
        <time>2016-01-13T12:32:59Z</time>
      </trkpt>
      <trkpt lat="44.83979" lon="-0.53051">
        <ele>-44</ele>
        <time>2016-01-13T12:33:05Z</time>
      </trkpt>
      <trkpt lat="44.83971" lon="-0.53048">
        <ele>-45</ele>
        <time>2016-01-13T12:33:11Z</time>
      </trkpt>
      <trkpt lat="44.83963" lon="-0.53047">
        <ele>-44</ele>
        <time>2016-01-13T12:33:17Z</time>
      </trkpt>
      <trkpt lat="44.83956" lon="-0.53049">
        <ele>-44</ele>
        <time>2016-01-13T12:33:22Z</time>
      </trkpt>
      <trkpt lat="44.83947" lon="-0.53051">
        <ele>-41</ele>
        <time>2016-01-13T12:33:29Z</time>
      </trkpt>
      <trkpt lat="44.83939" lon="-0.53048">
        <ele>-40</ele>
        <time>2016-01-13T12:33:36Z</time>
      </trkpt>
      <trkpt lat="44.83931" lon="-0.53045">
        <ele>-41</ele>
        <time>2016-01-13T12:33:42Z</time>
      </trkpt>
      <trkpt lat="44.83922" lon="-0.53043">
        <ele>-43</ele>
        <time>2016-01-13T12:33:48Z</time>
      </trkpt>
      <trkpt lat="44.83914" lon="-0.5304">
        <ele>-43</ele>
        <time>2016-01-13T12:33:57Z</time>
      </trkpt>
      <trkpt lat="44.83906" lon="-0.53037">
        <ele>-45</ele>
        <time>2016-01-13T12:34:05Z</time>
      </trkpt>
      <trkpt lat="44.83898" lon="-0.53033">
        <ele>-45</ele>
        <time>2016-01-13T12:34:10Z</time>
      </trkpt>
      <trkpt lat="44.8389" lon="-0.53031">
        <ele>-43</ele>
        <time>2016-01-13T12:34:16Z</time>
      </trkpt>
      <trkpt lat="44.83882" lon="-0.53031">
        <ele>-43</ele>
        <time>2016-01-13T12:34:22Z</time>
      </trkpt>
      <trkpt lat="44.83875" lon="-0.53033">
        <ele>-44</ele>
        <time>2016-01-13T12:34:27Z</time>
      </trkpt>
      <trkpt lat="44.83867" lon="-0.53032">
        <ele>-44</ele>
        <time>2016-01-13T12:34:33Z</time>
      </trkpt>
      <trkpt lat="44.83858" lon="-0.53031">
        <ele>-44</ele>
        <time>2016-01-13T12:34:40Z</time>
      </trkpt>
      <trkpt lat="44.83851" lon="-0.53029">
        <ele>-42</ele>
        <time>2016-01-13T12:34:46Z</time>
      </trkpt>
      <trkpt lat="44.83842" lon="-0.53027">
        <ele>-40</ele>
        <time>2016-01-13T12:34:53Z</time>
      </trkpt>
      <trkpt lat="44.83834" lon="-0.53023">
        <ele>-42</ele>
        <time>2016-01-13T12:35:00Z</time>
      </trkpt>
      <trkpt lat="44.83826" lon="-0.53021">
        <ele>-45</ele>
        <time>2016-01-13T12:35:07Z</time>
      </trkpt>
      <trkpt lat="44.83817" lon="-0.53019">
        <ele>-47</ele>
        <time>2016-01-13T12:35:14Z</time>
      </trkpt>
      <trkpt lat="44.83809" lon="-0.53019">
        <ele>-48</ele>
        <time>2016-01-13T12:35:21Z</time>
      </trkpt>
      <trkpt lat="44.83801" lon="-0.53021">
        <ele>-48</ele>
        <time>2016-01-13T12:35:26Z</time>
      </trkpt>
      <trkpt lat="44.83793" lon="-0.5302">
        <ele>-49</ele>
        <time>2016-01-13T12:35:32Z</time>
      </trkpt>
      <trkpt lat="44.83785" lon="-0.53023">
        <ele>-48</ele>
        <time>2016-01-13T12:35:37Z</time>
      </trkpt>
      <trkpt lat="44.83776" lon="-0.53021">
        <ele>-48</ele>
        <time>2016-01-13T12:35:44Z</time>
      </trkpt>
      <trkpt lat="44.83768" lon="-0.53021">
        <ele>-48</ele>
        <time>2016-01-13T12:35:51Z</time>
      </trkpt>
      <trkpt lat="44.8376" lon="-0.5302">
        <ele>-48</ele>
        <time>2016-01-13T12:35:58Z</time>
      </trkpt>
      <trkpt lat="44.83752" lon="-0.5302">
        <ele>-49</ele>
        <time>2016-01-13T12:36:04Z</time>
      </trkpt>
      <trkpt lat="44.83743" lon="-0.5302">
        <ele>-49</ele>
        <time>2016-01-13T12:36:11Z</time>
      </trkpt>
      <trkpt lat="44.83735" lon="-0.53017">
        <ele>-50</ele>
        <time>2016-01-13T12:36:18Z</time>
      </trkpt>
      <trkpt lat="44.83726" lon="-0.53018">
        <ele>-49</ele>
        <time>2016-01-13T12:36:25Z</time>
      </trkpt>
      <trkpt lat="44.83718" lon="-0.53018">
        <ele>-47</ele>
        <time>2016-01-13T12:36:32Z</time>
      </trkpt>
      <trkpt lat="44.8371" lon="-0.53019">
        <ele>-47</ele>
        <time>2016-01-13T12:36:38Z</time>
      </trkpt>
      <trkpt lat="44.83701" lon="-0.53019">
        <ele>-47</ele>
        <time>2016-01-13T12:36:45Z</time>
      </trkpt>
      <trkpt lat="44.83693" lon="-0.53018">
        <ele>-47</ele>
        <time>2016-01-13T12:36:52Z</time>
      </trkpt>
      <trkpt lat="44.83684" lon="-0.53016">
        <ele>-46</ele>
        <time>2016-01-13T12:37:00Z</time>
      </trkpt>
      <trkpt lat="44.83677" lon="-0.53016">
        <ele>-46</ele>
        <time>2016-01-13T12:37:06Z</time>
      </trkpt>
      <trkpt lat="44.83669" lon="-0.53018">
        <ele>-45</ele>
        <time>2016-01-13T12:37:12Z</time>
      </trkpt>
      <trkpt lat="44.83661" lon="-0.53018">
        <ele>-47</ele>
        <time>2016-01-13T12:37:18Z</time>
      </trkpt>
      <trkpt lat="44.83652" lon="-0.53017">
        <ele>-46</ele>
        <time>2016-01-13T12:37:24Z</time>
      </trkpt>
      <trkpt lat="44.83644" lon="-0.53017">
        <ele>-47</ele>
        <time>2016-01-13T12:37:30Z</time>
      </trkpt>
      <trkpt lat="44.83636" lon="-0.53015">
        <ele>-47</ele>
        <time>2016-01-13T12:37:36Z</time>
      </trkpt>
      <trkpt lat="44.83627" lon="-0.53016">
        <ele>-48</ele>
        <time>2016-01-13T12:37:42Z</time>
      </trkpt>
      <trkpt lat="44.83619" lon="-0.53016">
        <ele>-47</ele>
        <time>2016-01-13T12:37:49Z</time>
      </trkpt>
      <trkpt lat="44.83611" lon="-0.53015">
        <ele>-46</ele>
        <time>2016-01-13T12:37:56Z</time>
      </trkpt>
      <trkpt lat="44.83603" lon="-0.53017">
        <ele>-43</ele>
        <time>2016-01-13T12:38:03Z</time>
      </trkpt>
      <trkpt lat="44.83596" lon="-0.53018">
        <ele>-40</ele>
        <time>2016-01-13T12:38:08Z</time>
      </trkpt>
      <trkpt lat="44.83587" lon="-0.5302">
        <ele>-42</ele>
        <time>2016-01-13T12:38:14Z</time>
      </trkpt>
      <trkpt lat="44.83578" lon="-0.53018">
        <ele>-42</ele>
        <time>2016-01-13T12:38:21Z</time>
      </trkpt>
      <trkpt lat="44.83569" lon="-0.53017">
        <ele>-42</ele>
        <time>2016-01-13T12:38:28Z</time>
      </trkpt>
      <trkpt lat="44.83561" lon="-0.53013">
        <ele>-43</ele>
        <time>2016-01-13T12:38:35Z</time>
      </trkpt>
      <trkpt lat="44.83553" lon="-0.53013">
        <ele>-43</ele>
        <time>2016-01-13T12:38:40Z</time>
      </trkpt>
      <trkpt lat="44.83544" lon="-0.53011">
        <ele>-43</ele>
        <time>2016-01-13T12:38:47Z</time>
      </trkpt>
      <trkpt lat="44.83537" lon="-0.53008">
        <ele>-43</ele>
        <time>2016-01-13T12:38:54Z</time>
      </trkpt>
      <trkpt lat="44.83529" lon="-0.53003">
        <ele>-44</ele>
        <time>2016-01-13T12:39:00Z</time>
      </trkpt>
      <trkpt lat="44.8352" lon="-0.52999">
        <ele>-45</ele>
        <time>2016-01-13T12:39:08Z</time>
      </trkpt>
      <trkpt lat="44.83512" lon="-0.52998">
        <ele>-43</ele>
        <time>2016-01-13T12:39:14Z</time>
      </trkpt>
      <trkpt lat="44.83505" lon="-0.52992">
        <ele>-45</ele>
        <time>2016-01-13T12:39:21Z</time>
      </trkpt>
      <trkpt lat="44.83497" lon="-0.5299">
        <ele>-46</ele>
        <time>2016-01-13T12:39:28Z</time>
      </trkpt>
      <trkpt lat="44.83489" lon="-0.52991">
        <ele>-47</ele>
        <time>2016-01-13T12:39:34Z</time>
      </trkpt>
      <trkpt lat="44.83481" lon="-0.5299">
        <ele>-47</ele>
        <time>2016-01-13T12:39:40Z</time>
      </trkpt>
      <trkpt lat="44.83473" lon="-0.52986">
        <ele>-48</ele>
        <time>2016-01-13T12:39:47Z</time>
      </trkpt>
      <trkpt lat="44.83465" lon="-0.52983">
        <ele>-46</ele>
        <time>2016-01-13T12:39:53Z</time>
      </trkpt>
      <trkpt lat="44.83457" lon="-0.52979">
        <ele>-46</ele>
        <time>2016-01-13T12:40:00Z</time>
      </trkpt>
      <trkpt lat="44.8345" lon="-0.52974">
        <ele>-48</ele>
        <time>2016-01-13T12:40:07Z</time>
      </trkpt>
      <trkpt lat="44.83442" lon="-0.52969">
        <ele>-48</ele>
        <time>2016-01-13T12:40:15Z</time>
      </trkpt>
      <trkpt lat="44.83434" lon="-0.52969">
        <ele>-47</ele>
        <time>2016-01-13T12:40:21Z</time>
      </trkpt>
      <trkpt lat="44.83426" lon="-0.52969">
        <ele>-48</ele>
        <time>2016-01-13T12:40:26Z</time>
      </trkpt>
      <trkpt lat="44.83417" lon="-0.52965">
        <ele>-47</ele>
        <time>2016-01-13T12:40:32Z</time>
      </trkpt>
      <trkpt lat="44.8341" lon="-0.5296">
        <ele>-46</ele>
        <time>2016-01-13T12:40:39Z</time>
      </trkpt>
      <trkpt lat="44.83403" lon="-0.52954">
        <ele>-44</ele>
        <time>2016-01-13T12:40:46Z</time>
      </trkpt>
      <trkpt lat="44.83396" lon="-0.52948">
        <ele>-41</ele>
        <time>2016-01-13T12:40:52Z</time>
      </trkpt>
      <trkpt lat="44.83387" lon="-0.5295">
        <ele>-42</ele>
        <time>2016-01-13T12:40:57Z</time>
      </trkpt>
      <trkpt lat="44.8338" lon="-0.52945">
        <ele>-44</ele>
        <time>2016-01-13T12:41:03Z</time>
      </trkpt>
      <trkpt lat="44.83373" lon="-0.52939">
        <ele>-44</ele>
        <time>2016-01-13T12:41:09Z</time>
      </trkpt>
      <trkpt lat="44.83366" lon="-0.52934">
        <ele>-46</ele>
        <time>2016-01-13T12:41:16Z</time>
      </trkpt>
      <trkpt lat="44.83359" lon="-0.52927">
        <ele>-45</ele>
        <time>2016-01-13T12:41:23Z</time>
      </trkpt>
      <trkpt lat="44.83352" lon="-0.52922">
        <ele>-41</ele>
        <time>2016-01-13T12:41:29Z</time>
      </trkpt>
      <trkpt lat="44.83344" lon="-0.52916">
        <ele>-40</ele>
        <time>2016-01-13T12:41:37Z</time>
      </trkpt>
      <trkpt lat="44.83336" lon="-0.5291">
        <ele>-43</ele>
        <time>2016-01-13T12:41:44Z</time>
      </trkpt>
      <trkpt lat="44.83329" lon="-0.52905">
        <ele>-48</ele>
        <time>2016-01-13T12:41:52Z</time>
      </trkpt>
      <trkpt lat="44.83321" lon="-0.52898">
        <ele>-47</ele>
        <time>2016-01-13T12:41:59Z</time>
      </trkpt>
      <trkpt lat="44.83314" lon="-0.52895">
        <ele>-46</ele>
        <time>2016-01-13T12:42:04Z</time>
      </trkpt>
      <trkpt lat="44.83306" lon="-0.52891">
        <ele>-47</ele>
        <time>2016-01-13T12:42:10Z</time>
      </trkpt>
      <trkpt lat="44.83298" lon="-0.52888">
        <ele>-42</ele>
        <time>2016-01-13T12:42:17Z</time>
      </trkpt>
      <trkpt lat="44.83291" lon="-0.52881">
        <ele>-40</ele>
        <time>2016-01-13T12:42:24Z</time>
      </trkpt>
      <trkpt lat="44.83285" lon="-0.52876">
        <ele>-39</ele>
        <time>2016-01-13T12:42:31Z</time>
      </trkpt>
      <trkpt lat="44.83277" lon="-0.52872">
        <ele>-39</ele>
        <time>2016-01-13T12:42:37Z</time>
      </trkpt>
      <trkpt lat="44.8327" lon="-0.52865">
        <ele>-40</ele>
        <time>2016-01-13T12:42:44Z</time>
      </trkpt>
      <trkpt lat="44.83263" lon="-0.52858">
        <ele>-39</ele>
        <time>2016-01-13T12:42:51Z</time>
      </trkpt>
      <trkpt lat="44.83256" lon="-0.52851">
        <ele>-37</ele>
        <time>2016-01-13T12:42:58Z</time>
      </trkpt>
      <trkpt lat="44.83249" lon="-0.52844">
        <ele>-38</ele>
        <time>2016-01-13T12:43:05Z</time>
      </trkpt>
      <trkpt lat="44.83243" lon="-0.52836">
        <ele>-41</ele>
        <time>2016-01-13T12:43:11Z</time>
      </trkpt>
      <trkpt lat="44.83237" lon="-0.52827">
        <ele>-41</ele>
        <time>2016-01-13T12:43:17Z</time>
      </trkpt>
      <trkpt lat="44.8323" lon="-0.5282">
        <ele>-39</ele>
        <time>2016-01-13T12:43:24Z</time>
      </trkpt>
      <trkpt lat="44.83223" lon="-0.52813">
        <ele>-38</ele>
        <time>2016-01-13T12:43:31Z</time>
      </trkpt>
      <trkpt lat="44.83214" lon="-0.52809">
        <ele>-36</ele>
        <time>2016-01-13T12:43:38Z</time>
      </trkpt>
      <trkpt lat="44.83207" lon="-0.52804">
        <ele>-32</ele>
        <time>2016-01-13T12:43:45Z</time>
      </trkpt>
      <trkpt lat="44.832" lon="-0.52795">
        <ele>-32</ele>
        <time>2016-01-13T12:43:52Z</time>
      </trkpt>
      <trkpt lat="44.83193" lon="-0.52791">
        <ele>-29</ele>
        <time>2016-01-13T12:43:58Z</time>
      </trkpt>
      <trkpt lat="44.83186" lon="-0.52783">
        <ele>-30</ele>
        <time>2016-01-13T12:44:06Z</time>
      </trkpt>
      <trkpt lat="44.83181" lon="-0.52775">
        <ele>-30</ele>
        <time>2016-01-13T12:44:12Z</time>
      </trkpt>
      <trkpt lat="44.83176" lon="-0.52766">
        <ele>-31</ele>
        <time>2016-01-13T12:44:18Z</time>
      </trkpt>
      <trkpt lat="44.8317" lon="-0.52759">
        <ele>-31</ele>
        <time>2016-01-13T12:44:24Z</time>
      </trkpt>
      <trkpt lat="44.83163" lon="-0.52751">
        <ele>-30</ele>
        <time>2016-01-13T12:44:31Z</time>
      </trkpt>
      <trkpt lat="44.83158" lon="-0.52742">
        <ele>-32</ele>
        <time>2016-01-13T12:44:37Z</time>
      </trkpt>
      <trkpt lat="44.8315" lon="-0.52737">
        <ele>-36</ele>
        <time>2016-01-13T12:44:44Z</time>
      </trkpt>
      <trkpt lat="44.83142" lon="-0.52731">
        <ele>-39</ele>
        <time>2016-01-13T12:44:51Z</time>
      </trkpt>
      <trkpt lat="44.83134" lon="-0.52732">
        <ele>-38</ele>
        <time>2016-01-13T12:45:00Z</time>
      </trkpt>
      <trkpt lat="44.83126" lon="-0.5273">
        <ele>-41</ele>
        <time>2016-01-13T12:45:08Z</time>
      </trkpt>
      <trkpt lat="44.83118" lon="-0.52729">
        <ele>-41</ele>
        <time>2016-01-13T12:45:14Z</time>
      </trkpt>
      <trkpt lat="44.8311" lon="-0.5273">
        <ele>-43</ele>
        <time>2016-01-13T12:45:22Z</time>
      </trkpt>
      <trkpt lat="44.83102" lon="-0.5273">
        <ele>-44</ele>
        <time>2016-01-13T12:45:30Z</time>
      </trkpt>
      <trkpt lat="44.83093" lon="-0.52727">
        <ele>-38</ele>
        <time>2016-01-13T12:45:36Z</time>
      </trkpt>
      <trkpt lat="44.83086" lon="-0.5272">
        <ele>-36</ele>
        <time>2016-01-13T12:45:45Z</time>
      </trkpt>
      <trkpt lat="44.83078" lon="-0.52721">
        <ele>-36</ele>
        <time>2016-01-13T12:45:51Z</time>
      </trkpt>
      <trkpt lat="44.8307" lon="-0.52719">
        <ele>-30</ele>
        <time>2016-01-13T12:45:57Z</time>
      </trkpt>
      <trkpt lat="44.83063" lon="-0.52726">
        <ele>-30</ele>
        <time>2016-01-13T12:46:01Z</time>
      </trkpt>
      <trkpt lat="44.83057" lon="-0.52735">
        <ele>-25</ele>
        <time>2016-01-13T12:46:06Z</time>
      </trkpt>
      <trkpt lat="44.83049" lon="-0.5274">
        <ele>-28</ele>
        <time>2016-01-13T12:46:17Z</time>
      </trkpt>
      <trkpt lat="44.83041" lon="-0.52739">
        <ele>-32</ele>
        <time>2016-01-13T12:46:25Z</time>
      </trkpt>
      <trkpt lat="44.83033" lon="-0.52733">
        <ele>-33</ele>
        <time>2016-01-13T12:46:32Z</time>
      </trkpt>
      <trkpt lat="44.8303" lon="-0.52722">
        <ele>-35</ele>
        <time>2016-01-13T12:46:41Z</time>
      </trkpt>
      <trkpt lat="44.83022" lon="-0.52718">
        <ele>-41</ele>
        <time>2016-01-13T12:46:49Z</time>
      </trkpt>
      <trkpt lat="44.83021" lon="-0.52716">
        <ele>-42</ele>
        <time>2016-01-13T12:47:09Z</time>
      </trkpt>
      <trkpt lat="44.83012" lon="-0.52707">
        <ele>-42</ele>
        <time>2016-01-13T12:47:13Z</time>
      </trkpt>
      <trkpt lat="44.83007" lon="-0.52699">
        <ele>-43</ele>
        <time>2016-01-13T12:47:18Z</time>
      </trkpt>
      <trkpt lat="44.83002" lon="-0.52689">
        <ele>-40</ele>
        <time>2016-01-13T12:47:26Z</time>
      </trkpt>
      <trkpt lat="44.82997" lon="-0.52678">
        <ele>-38</ele>
        <time>2016-01-13T12:47:34Z</time>
      </trkpt>
      <trkpt lat="44.82992" lon="-0.5267">
        <ele>-37</ele>
        <time>2016-01-13T12:47:44Z</time>
      </trkpt>
      <trkpt lat="44.82987" lon="-0.5266">
        <ele>-36</ele>
        <time>2016-01-13T12:47:51Z</time>
      </trkpt>
      <trkpt lat="44.82984" lon="-0.5265">
        <ele>-38</ele>
        <time>2016-01-13T12:47:57Z</time>
      </trkpt>
      <trkpt lat="44.82981" lon="-0.52638">
        <ele>-38</ele>
        <time>2016-01-13T12:48:04Z</time>
      </trkpt>
      <trkpt lat="44.82978" lon="-0.52628">
        <ele>-37</ele>
        <time>2016-01-13T12:48:11Z</time>
      </trkpt>
      <trkpt lat="44.82975" lon="-0.52617">
        <ele>-38</ele>
        <time>2016-01-13T12:48:18Z</time>
      </trkpt>
      <trkpt lat="44.82968" lon="-0.52609">
        <ele>-33</ele>
        <time>2016-01-13T12:48:26Z</time>
      </trkpt>
      <trkpt lat="44.82965" lon="-0.52597">
        <ele>-31</ele>
        <time>2016-01-13T12:48:33Z</time>
      </trkpt>
      <trkpt lat="44.82961" lon="-0.52587">
        <ele>-30</ele>
        <time>2016-01-13T12:48:40Z</time>
      </trkpt>
      <trkpt lat="44.82958" lon="-0.52575">
        <ele>-30</ele>
        <time>2016-01-13T12:48:47Z</time>
      </trkpt>
      <trkpt lat="44.82954" lon="-0.52566">
        <ele>-31</ele>
        <time>2016-01-13T12:48:53Z</time>
      </trkpt>
      <trkpt lat="44.82951" lon="-0.52555">
        <ele>-32</ele>
        <time>2016-01-13T12:48:59Z</time>
      </trkpt>
      <trkpt lat="44.82947" lon="-0.52544">
        <ele>-32</ele>
        <time>2016-01-13T12:49:06Z</time>
      </trkpt>
      <trkpt lat="44.82944" lon="-0.52533">
        <ele>-35</ele>
        <time>2016-01-13T12:49:12Z</time>
      </trkpt>
      <trkpt lat="44.82939" lon="-0.52523">
        <ele>-32</ele>
        <time>2016-01-13T12:49:19Z</time>
      </trkpt>
      <trkpt lat="44.82936" lon="-0.52511">
        <ele>-33</ele>
        <time>2016-01-13T12:49:26Z</time>
      </trkpt>
      <trkpt lat="44.82931" lon="-0.52502">
        <ele>-35</ele>
        <time>2016-01-13T12:49:33Z</time>
      </trkpt>
      <trkpt lat="44.82926" lon="-0.52492">
        <ele>-35</ele>
        <time>2016-01-13T12:49:40Z</time>
      </trkpt>
      <trkpt lat="44.82921" lon="-0.52482">
        <ele>-33</ele>
        <time>2016-01-13T12:49:47Z</time>
      </trkpt>
      <trkpt lat="44.82915" lon="-0.52474">
        <ele>-31</ele>
        <time>2016-01-13T12:49:54Z</time>
      </trkpt>
      <trkpt lat="44.82909" lon="-0.52465">
        <ele>-31</ele>
        <time>2016-01-13T12:50:01Z</time>
      </trkpt>
      <trkpt lat="44.82904" lon="-0.52455">
        <ele>-31</ele>
        <time>2016-01-13T12:50:08Z</time>
      </trkpt>
      <trkpt lat="44.829" lon="-0.52445">
        <ele>-33</ele>
        <time>2016-01-13T12:50:14Z</time>
      </trkpt>
      <trkpt lat="44.82894" lon="-0.52436">
        <ele>-35</ele>
        <time>2016-01-13T12:50:21Z</time>
      </trkpt>
      <trkpt lat="44.82889" lon="-0.52427">
        <ele>-33</ele>
        <time>2016-01-13T12:50:28Z</time>
      </trkpt>
      <trkpt lat="44.82884" lon="-0.52418">
        <ele>-33</ele>
        <time>2016-01-13T12:50:35Z</time>
      </trkpt>
      <trkpt lat="44.82879" lon="-0.52408">
        <ele>-35</ele>
        <time>2016-01-13T12:50:42Z</time>
      </trkpt>
      <trkpt lat="44.82875" lon="-0.52398">
        <ele>-36</ele>
        <time>2016-01-13T12:50:48Z</time>
      </trkpt>
      <trkpt lat="44.82869" lon="-0.52389">
        <ele>-35</ele>
        <time>2016-01-13T12:50:54Z</time>
      </trkpt>
      <trkpt lat="44.82866" lon="-0.52379">
        <ele>-36</ele>
        <time>2016-01-13T12:51:01Z</time>
      </trkpt>
      <trkpt lat="44.82861" lon="-0.52369">
        <ele>-36</ele>
        <time>2016-01-13T12:51:07Z</time>
      </trkpt>
      <trkpt lat="44.82857" lon="-0.52359">
        <ele>-36</ele>
        <time>2016-01-13T12:51:13Z</time>
      </trkpt>
      <trkpt lat="44.82853" lon="-0.52349">
        <ele>-36</ele>
        <time>2016-01-13T12:51:20Z</time>
      </trkpt>
      <trkpt lat="44.82848" lon="-0.52339">
        <ele>-37</ele>
        <time>2016-01-13T12:51:27Z</time>
      </trkpt>
      <trkpt lat="44.82842" lon="-0.52331">
        <ele>-37</ele>
        <time>2016-01-13T12:51:34Z</time>
      </trkpt>
      <trkpt lat="44.82835" lon="-0.52325">
        <ele>-32</ele>
        <time>2016-01-13T12:51:40Z</time>
      </trkpt>
      <trkpt lat="44.82828" lon="-0.52318">
        <ele>-31</ele>
        <time>2016-01-13T12:51:47Z</time>
      </trkpt>
      <trkpt lat="44.82822" lon="-0.5231">
        <ele>-29</ele>
        <time>2016-01-13T12:51:55Z</time>
      </trkpt>
      <trkpt lat="44.82819" lon="-0.52299">
        <ele>-29</ele>
        <time>2016-01-13T12:52:02Z</time>
      </trkpt>
      <trkpt lat="44.82818" lon="-0.52287">
        <ele>-32</ele>
        <time>2016-01-13T12:52:08Z</time>
      </trkpt>
      <trkpt lat="44.82815" lon="-0.52277">
        <ele>-31</ele>
        <time>2016-01-13T12:52:14Z</time>
      </trkpt>
      <trkpt lat="44.82812" lon="-0.52266">
        <ele>-31</ele>
        <time>2016-01-13T12:52:21Z</time>
      </trkpt>
      <trkpt lat="44.82807" lon="-0.52256">
        <ele>-29</ele>
        <time>2016-01-13T12:52:29Z</time>
      </trkpt>
      <trkpt lat="44.82802" lon="-0.52247">
        <ele>-26</ele>
        <time>2016-01-13T12:52:37Z</time>
      </trkpt>
      <trkpt lat="44.82795" lon="-0.5224">
        <ele>-23</ele>
        <time>2016-01-13T12:52:46Z</time>
      </trkpt>
      <trkpt lat="44.82787" lon="-0.52235">
        <ele>-21</ele>
        <time>2016-01-13T12:52:58Z</time>
      </trkpt>
      <trkpt lat="44.82781" lon="-0.52229">
        <ele>-19</ele>
        <time>2016-01-13T12:53:05Z</time>
      </trkpt>
      <trkpt lat="44.82775" lon="-0.52221">
        <ele>-21</ele>
        <time>2016-01-13T12:53:12Z</time>
      </trkpt>
      <trkpt lat="44.82767" lon="-0.52215">
        <ele>-22</ele>
        <time>2016-01-13T12:53:19Z</time>
      </trkpt>
      <trkpt lat="44.8276" lon="-0.52209">
        <ele>-20</ele>
        <time>2016-01-13T12:53:28Z</time>
      </trkpt>
      <trkpt lat="44.82753" lon="-0.52201">
        <ele>-17</ele>
        <time>2016-01-13T12:53:37Z</time>
      </trkpt>
      <trkpt lat="44.82746" lon="-0.52193">
        <ele>-15</ele>
        <time>2016-01-13T12:53:46Z</time>
      </trkpt>
      <trkpt lat="44.8274" lon="-0.52185">
        <ele>-13</ele>
        <time>2016-01-13T12:53:55Z</time>
      </trkpt>
      <trkpt lat="44.82735" lon="-0.52175">
        <ele>-13</ele>
        <time>2016-01-13T12:54:04Z</time>
      </trkpt>
      <trkpt lat="44.82729" lon="-0.52166">
        <ele>-13</ele>
        <time>2016-01-13T12:54:11Z</time>
      </trkpt>
      <trkpt lat="44.82722" lon="-0.5216">
        <ele>-11</ele>
        <time>2016-01-13T12:54:19Z</time>
      </trkpt>
      <trkpt lat="44.82715" lon="-0.52152">
        <ele>-10</ele>
        <time>2016-01-13T12:54:28Z</time>
      </trkpt>
      <trkpt lat="44.82708" lon="-0.52147">
        <ele>-9</ele>
        <time>2016-01-13T12:54:36Z</time>
      </trkpt>
      <trkpt lat="44.827" lon="-0.52141">
        <ele>-13</ele>
        <time>2016-01-13T12:54:44Z</time>
      </trkpt>
      <trkpt lat="44.82692" lon="-0.52137">
        <ele>-16</ele>
        <time>2016-01-13T12:54:51Z</time>
      </trkpt>
      <trkpt lat="44.82684" lon="-0.52133">
        <ele>-14</ele>
        <time>2016-01-13T12:54:58Z</time>
      </trkpt>
      <trkpt lat="44.82677" lon="-0.52127">
        <ele>-14</ele>
        <time>2016-01-13T12:55:07Z</time>
      </trkpt>
      <trkpt lat="44.8267" lon="-0.5212">
        <ele>-14</ele>
        <time>2016-01-13T12:55:15Z</time>
      </trkpt>
      <trkpt lat="44.82665" lon="-0.5211">
        <ele>-15</ele>
        <time>2016-01-13T12:55:23Z</time>
      </trkpt>
      <trkpt lat="44.82657" lon="-0.52104">
        <ele>-12</ele>
        <time>2016-01-13T12:55:32Z</time>
      </trkpt>
      <trkpt lat="44.82648" lon="-0.52103">
        <ele>-12</ele>
        <time>2016-01-13T12:55:39Z</time>
      </trkpt>
      <trkpt lat="44.8264" lon="-0.52097">
        <ele>-12</ele>
        <time>2016-01-13T12:55:47Z</time>
      </trkpt>
      <trkpt lat="44.82632" lon="-0.52093">
        <ele>-12</ele>
        <time>2016-01-13T12:55:54Z</time>
      </trkpt>
      <trkpt lat="44.82624" lon="-0.52089">
        <ele>-12</ele>
        <time>2016-01-13T12:56:02Z</time>
      </trkpt>
      <trkpt lat="44.82616" lon="-0.52088">
        <ele>-12</ele>
        <time>2016-01-13T12:56:11Z</time>
      </trkpt>
      <trkpt lat="44.82607" lon="-0.52084">
        <ele>-10</ele>
        <time>2016-01-13T12:56:18Z</time>
      </trkpt>
      <trkpt lat="44.82613" lon="-0.52075">
        <ele>-8</ele>
        <time>2016-01-13T12:56:32Z</time>
      </trkpt>
      <trkpt lat="44.8262" lon="-0.52078">
        <ele>-8</ele>
        <time>2016-01-13T12:56:38Z</time>
      </trkpt>
      <trkpt lat="44.82628" lon="-0.5208">
        <ele>-7</ele>
        <time>2016-01-13T12:56:44Z</time>
      </trkpt>
      <trkpt lat="44.82637" lon="-0.52081">
        <ele>-7</ele>
        <time>2016-01-13T12:56:52Z</time>
      </trkpt>
      <trkpt lat="44.82645" lon="-0.52081">
        <ele>-7</ele>
        <time>2016-01-13T12:56:59Z</time>
      </trkpt>
      <trkpt lat="44.82653" lon="-0.52082">
        <ele>-11</ele>
        <time>2016-01-13T12:57:07Z</time>
      </trkpt>
      <trkpt lat="44.82661" lon="-0.52083">
        <ele>-12</ele>
        <time>2016-01-13T12:57:15Z</time>
      </trkpt>
      <trkpt lat="44.82669" lon="-0.52087">
        <ele>-15</ele>
        <time>2016-01-13T12:57:25Z</time>
      </trkpt>
      <trkpt lat="44.82677" lon="-0.52089">
        <ele>-19</ele>
        <time>2016-01-13T12:57:33Z</time>
      </trkpt>
      <trkpt lat="44.82685" lon="-0.52093">
        <ele>-17</ele>
        <time>2016-01-13T12:57:41Z</time>
      </trkpt>
      <trkpt lat="44.82694" lon="-0.52094">
        <ele>-18</ele>
        <time>2016-01-13T12:57:48Z</time>
      </trkpt>
      <trkpt lat="44.82702" lon="-0.52093">
        <ele>-20</ele>
        <time>2016-01-13T12:57:55Z</time>
      </trkpt>
      <trkpt lat="44.82711" lon="-0.52093">
        <ele>-16</ele>
        <time>2016-01-13T12:58:03Z</time>
      </trkpt>
      <trkpt lat="44.82719" lon="-0.5209">
        <ele>-14</ele>
        <time>2016-01-13T12:58:11Z</time>
      </trkpt>
      <trkpt lat="44.82727" lon="-0.52086">
        <ele>-12</ele>
        <time>2016-01-13T12:58:23Z</time>
      </trkpt>
      <trkpt lat="44.82735" lon="-0.52085">
        <ele>-12</ele>
        <time>2016-01-13T12:58:32Z</time>
      </trkpt>
      <trkpt lat="44.82744" lon="-0.52082">
        <ele>-11</ele>
        <time>2016-01-13T12:58:40Z</time>
      </trkpt>
      <trkpt lat="44.82752" lon="-0.52081">
        <ele>-12</ele>
        <time>2016-01-13T12:58:47Z</time>
      </trkpt>
      <trkpt lat="44.82761" lon="-0.52082">
        <ele>-14</ele>
        <time>2016-01-13T12:58:54Z</time>
      </trkpt>
      <trkpt lat="44.82755" lon="-0.52073">
        <ele>-9</ele>
        <time>2016-01-13T12:59:09Z</time>
      </trkpt>
      <trkpt lat="44.82748" lon="-0.52071">
        <ele>-6</ele>
        <time>2016-01-13T12:59:18Z</time>
      </trkpt>
      <trkpt lat="44.82739" lon="-0.52073">
        <ele>-4</ele>
        <time>2016-01-13T12:59:27Z</time>
      </trkpt>
      <trkpt lat="44.8273" lon="-0.5207">
        <ele>-2</ele>
        <time>2016-01-13T12:59:35Z</time>
      </trkpt>
      <trkpt lat="44.82723" lon="-0.52064">
        <ele>45.1</ele>
        <time>2016-01-13T12:59:45Z</time>
      </trkpt>
      <trkpt lat="44.82718" lon="-0.52054">
        <ele>-1</ele>
        <time>2016-01-13T12:59:53Z</time>
      </trkpt>
      <trkpt lat="44.82714" lon="-0.52044">
        <ele>-2</ele>
        <time>2016-01-13T13:00:00Z</time>
      </trkpt>
      <trkpt lat="44.82711" lon="-0.52033">
        <ele>-1</ele>
        <time>2016-01-13T13:00:07Z</time>
      </trkpt>
      <trkpt lat="44.82711" lon="-0.52022">
        <ele>52.2</ele>
        <time>2016-01-13T13:00:15Z</time>
      </trkpt>
      <trkpt lat="44.82709" lon="-0.52009">
        <ele>3</ele>
        <time>2016-01-13T13:00:24Z</time>
      </trkpt>
      <trkpt lat="44.82707" lon="-0.51998">
        <ele>3</ele>
        <time>2016-01-13T13:00:33Z</time>
      </trkpt>
      <trkpt lat="44.82706" lon="-0.51985">
        <ele>3</ele>
        <time>2016-01-13T13:00:42Z</time>
      </trkpt>
      <trkpt lat="44.82709" lon="-0.51974">
        <ele>6</ele>
        <time>2016-01-13T13:00:50Z</time>
      </trkpt>
      <trkpt lat="44.82709" lon="-0.51962">
        <ele>5</ele>
        <time>2016-01-13T13:00:58Z</time>
      </trkpt>
      <trkpt lat="44.82709" lon="-0.51951">
        <ele>4</ele>
        <time>2016-01-13T13:01:04Z</time>
      </trkpt>
      <trkpt lat="44.82711" lon="-0.51939">
        <ele>1</ele>
        <time>2016-01-13T13:01:11Z</time>
      </trkpt>
      <trkpt lat="44.82715" lon="-0.51929">
        <ele>56.9</ele>
        <time>2016-01-13T13:01:18Z</time>
      </trkpt>
      <trkpt lat="44.8272" lon="-0.51919">
        <ele>56.9</ele>
        <time>2016-01-13T13:01:26Z</time>
      </trkpt>
      <trkpt lat="44.82725" lon="-0.51909">
        <ele>2</ele>
        <time>2016-01-13T13:01:35Z</time>
      </trkpt>
      <trkpt lat="44.82732" lon="-0.51903">
        <ele>6</ele>
        <time>2016-01-13T13:01:48Z</time>
      </trkpt>
      <trkpt lat="44.8274" lon="-0.51902">
        <ele>8</ele>
        <time>2016-01-13T13:01:54Z</time>
      </trkpt>
      <trkpt lat="44.82748" lon="-0.51898">
        <ele>8</ele>
        <time>2016-01-13T13:02:04Z</time>
      </trkpt>
      <trkpt lat="44.82756" lon="-0.51891">
        <ele>8</ele>
        <time>2016-01-13T13:02:12Z</time>
      </trkpt>
      <trkpt lat="44.82759" lon="-0.5188">
        <ele>5</ele>
        <time>2016-01-13T13:02:21Z</time>
      </trkpt>
      <trkpt lat="44.82766" lon="-0.51876">
        <ele>10</ele>
        <time>2016-01-13T13:02:43Z</time>
      </trkpt>
      <trkpt lat="44.82771" lon="-0.51867">
        <ele>12</ele>
        <time>2016-01-13T13:02:49Z</time>
      </trkpt>
      <trkpt lat="44.82778" lon="-0.51862">
        <ele>12</ele>
        <time>2016-01-13T13:02:56Z</time>
      </trkpt>
      <trkpt lat="44.82785" lon="-0.51855">
        <ele>11</ele>
        <time>2016-01-13T13:03:03Z</time>
      </trkpt>
      <trkpt lat="44.82792" lon="-0.51851">
        <ele>10</ele>
        <time>2016-01-13T13:03:10Z</time>
      </trkpt>
      <trkpt lat="44.82799" lon="-0.51844">
        <ele>9</ele>
        <time>2016-01-13T13:03:17Z</time>
      </trkpt>
      <trkpt lat="44.82806" lon="-0.51837">
        <ele>8</ele>
        <time>2016-01-13T13:03:24Z</time>
      </trkpt>
      <trkpt lat="44.82811" lon="-0.51826">
        <ele>8</ele>
        <time>2016-01-13T13:03:32Z</time>
      </trkpt>
      <trkpt lat="44.82816" lon="-0.51816">
        <ele>10</ele>
        <time>2016-01-13T13:03:40Z</time>
      </trkpt>
      <trkpt lat="44.82822" lon="-0.51807">
        <ele>10</ele>
        <time>2016-01-13T13:03:48Z</time>
      </trkpt>
      <trkpt lat="44.82826" lon="-0.51798">
        <ele>14</ele>
        <time>2016-01-13T13:04:11Z</time>
      </trkpt>
      <trkpt lat="44.8283" lon="-0.51787">
        <ele>4</ele>
        <time>2016-01-13T13:04:24Z</time>
      </trkpt>
      <trkpt lat="44.82836" lon="-0.5178">
        <ele>65.1</ele>
        <time>2016-01-13T13:04:31Z</time>
      </trkpt>
      <trkpt lat="44.82842" lon="-0.51773">
        <ele>65.4</ele>
        <time>2016-01-13T13:04:36Z</time>
      </trkpt>
      <trkpt lat="44.8285" lon="-0.51768">
        <ele>2</ele>
        <time>2016-01-13T13:04:40Z</time>
      </trkpt>
      <trkpt lat="44.82856" lon="-0.51761">
        <ele>3</ele>
        <time>2016-01-13T13:04:46Z</time>
      </trkpt>
      <trkpt lat="44.82863" lon="-0.51756">
        <ele>5</ele>
        <time>2016-01-13T13:04:52Z</time>
      </trkpt>
      <trkpt lat="44.82871" lon="-0.51752">
        <ele>6</ele>
        <time>2016-01-13T13:04:59Z</time>
      </trkpt>
      <trkpt lat="44.82879" lon="-0.51747">
        <ele>3</ele>
        <time>2016-01-13T13:05:06Z</time>
      </trkpt>
      <trkpt lat="44.82886" lon="-0.51741">
        <ele>3</ele>
        <time>2016-01-13T13:05:12Z</time>
      </trkpt>
      <trkpt lat="44.82893" lon="-0.51734">
        <ele>3</ele>
        <time>2016-01-13T13:05:19Z</time>
      </trkpt>
      <trkpt lat="44.829" lon="-0.51727">
        <ele>3</ele>
        <time>2016-01-13T13:05:25Z</time>
      </trkpt>
      <trkpt lat="44.82907" lon="-0.51721">
        <ele>7</ele>
        <time>2016-01-13T13:05:31Z</time>
      </trkpt>
      <trkpt lat="44.82915" lon="-0.51715">
        <ele>10</ele>
        <time>2016-01-13T13:05:37Z</time>
      </trkpt>
      <trkpt lat="44.82922" lon="-0.51709">
        <ele>12</ele>
        <time>2016-01-13T13:05:46Z</time>
      </trkpt>
      <trkpt lat="44.82929" lon="-0.51702">
        <ele>13</ele>
        <time>2016-01-13T13:05:52Z</time>
      </trkpt>
      <trkpt lat="44.82936" lon="-0.51695">
        <ele>14</ele>
        <time>2016-01-13T13:05:59Z</time>
      </trkpt>
      <trkpt lat="44.82944" lon="-0.5169">
        <ele>14</ele>
        <time>2016-01-13T13:06:06Z</time>
      </trkpt>
      <trkpt lat="44.8295" lon="-0.51684">
        <ele>14</ele>
        <time>2016-01-13T13:06:11Z</time>
      </trkpt>
      <trkpt lat="44.82958" lon="-0.51677">
        <ele>10</ele>
        <time>2016-01-13T13:06:19Z</time>
      </trkpt>
      <trkpt lat="44.82964" lon="-0.51674">
        <ele>10</ele>
        <time>2016-01-13T13:06:24Z</time>
      </trkpt>
      <trkpt lat="44.82972" lon="-0.51671">
        <ele>13</ele>
        <time>2016-01-13T13:06:30Z</time>
      </trkpt>
      <trkpt lat="44.82979" lon="-0.51664">
        <ele>13</ele>
        <time>2016-01-13T13:06:37Z</time>
      </trkpt>
      <trkpt lat="44.82986" lon="-0.51658">
        <ele>11</ele>
        <time>2016-01-13T13:06:44Z</time>
      </trkpt>
      <trkpt lat="44.82992" lon="-0.51651">
        <ele>7</ele>
        <time>2016-01-13T13:06:51Z</time>
      </trkpt>
      <trkpt lat="44.83001" lon="-0.51647">
        <ele>6</ele>
        <time>2016-01-13T13:06:57Z</time>
      </trkpt>
      <trkpt lat="44.83006" lon="-0.51641">
        <ele>6</ele>
        <time>2016-01-13T13:08:22Z</time>
      </trkpt>
      <trkpt lat="44.83015" lon="-0.51635">
        <ele>7</ele>
        <time>2016-01-13T13:08:27Z</time>
      </trkpt>
      <trkpt lat="44.83022" lon="-0.51629">
        <ele>6</ele>
        <time>2016-01-13T13:08:34Z</time>
      </trkpt>
      <trkpt lat="44.8303" lon="-0.51627">
        <ele>4</ele>
        <time>2016-01-13T13:08:44Z</time>
      </trkpt>
      <trkpt lat="44.83038" lon="-0.51623">
        <ele>3</ele>
        <time>2016-01-13T13:08:51Z</time>
      </trkpt>
      <trkpt lat="44.83046" lon="-0.51618">
        <ele>4</ele>
        <time>2016-01-13T13:08:57Z</time>
      </trkpt>
      <trkpt lat="44.83053" lon="-0.51613">
        <ele>4</ele>
        <time>2016-01-13T13:09:03Z</time>
      </trkpt>
      <trkpt lat="44.8306" lon="-0.51606">
        <ele>4</ele>
        <time>2016-01-13T13:09:10Z</time>
      </trkpt>
      <trkpt lat="44.83068" lon="-0.516">
        <ele>5</ele>
        <time>2016-01-13T13:09:16Z</time>
      </trkpt>
      <trkpt lat="44.83075" lon="-0.51594">
        <ele>6</ele>
        <time>2016-01-13T13:09:22Z</time>
      </trkpt>
      <trkpt lat="44.83082" lon="-0.51588">
        <ele>6</ele>
        <time>2016-01-13T13:09:28Z</time>
      </trkpt>
      <trkpt lat="44.83089" lon="-0.5158">
        <ele>7</ele>
        <time>2016-01-13T13:09:35Z</time>
      </trkpt>
      <trkpt lat="44.83097" lon="-0.51574">
        <ele>8</ele>
        <time>2016-01-13T13:09:42Z</time>
      </trkpt>
      <trkpt lat="44.83103" lon="-0.51566">
        <ele>7</ele>
        <time>2016-01-13T13:09:49Z</time>
      </trkpt>
      <trkpt lat="44.8311" lon="-0.51559">
        <ele>6</ele>
        <time>2016-01-13T13:09:56Z</time>
      </trkpt>
      <trkpt lat="44.83116" lon="-0.51553">
        <ele>4</ele>
        <time>2016-01-13T13:10:03Z</time>
      </trkpt>
      <trkpt lat="44.83123" lon="-0.51548">
        <ele>3</ele>
        <time>2016-01-13T13:10:09Z</time>
      </trkpt>
      <trkpt lat="44.83131" lon="-0.51544">
        <ele>3</ele>
        <time>2016-01-13T13:10:15Z</time>
      </trkpt>
      <trkpt lat="44.83137" lon="-0.51536">
        <ele>3</ele>
        <time>2016-01-13T13:10:22Z</time>
      </trkpt>
      <trkpt lat="44.83145" lon="-0.5153">
        <ele>3</ele>
        <time>2016-01-13T13:10:29Z</time>
      </trkpt>
      <trkpt lat="44.83151" lon="-0.51525">
        <ele>3</ele>
        <time>2016-01-13T13:10:36Z</time>
      </trkpt>
      <trkpt lat="44.83158" lon="-0.51518">
        <ele>5</ele>
        <time>2016-01-13T13:10:42Z</time>
      </trkpt>
      <trkpt lat="44.83165" lon="-0.51511">
        <ele>7</ele>
        <time>2016-01-13T13:10:48Z</time>
      </trkpt>
      <trkpt lat="44.83172" lon="-0.51507">
        <ele>6</ele>
        <time>2016-01-13T13:10:55Z</time>
      </trkpt>
      <trkpt lat="44.8318" lon="-0.51501">
        <ele>8</ele>
        <time>2016-01-13T13:11:02Z</time>
      </trkpt>
      <trkpt lat="44.83187" lon="-0.51496">
        <ele>9</ele>
        <time>2016-01-13T13:11:08Z</time>
      </trkpt>
      <trkpt lat="44.83193" lon="-0.51489">
        <ele>7</ele>
        <time>2016-01-13T13:11:16Z</time>
      </trkpt>
      <trkpt lat="44.83199" lon="-0.51481">
        <ele>7</ele>
        <time>2016-01-13T13:11:21Z</time>
      </trkpt>
      <trkpt lat="44.83206" lon="-0.51474">
        <ele>7</ele>
        <time>2016-01-13T13:11:28Z</time>
      </trkpt>
      <trkpt lat="44.83213" lon="-0.5147">
        <ele>8</ele>
        <time>2016-01-13T13:11:34Z</time>
      </trkpt>
      <trkpt lat="44.8322" lon="-0.51463">
        <ele>6</ele>
        <time>2016-01-13T13:11:41Z</time>
      </trkpt>
      <trkpt lat="44.83227" lon="-0.51457">
        <ele>5</ele>
        <time>2016-01-13T13:11:49Z</time>
      </trkpt>
      <trkpt lat="44.83234" lon="-0.51449">
        <ele>3</ele>
        <time>2016-01-13T13:11:56Z</time>
      </trkpt>
      <trkpt lat="44.83241" lon="-0.51441">
        <ele>4</ele>
        <time>2016-01-13T13:12:02Z</time>
      </trkpt>
      <trkpt lat="44.83249" lon="-0.51436">
        <ele>4</ele>
        <time>2016-01-13T13:12:08Z</time>
      </trkpt>
      <trkpt lat="44.83256" lon="-0.51431">
        <ele>1</ele>
        <time>2016-01-13T13:12:17Z</time>
      </trkpt>
      <trkpt lat="44.83263" lon="-0.51426">
        <ele>1</ele>
        <time>2016-01-13T13:12:23Z</time>
      </trkpt>
      <trkpt lat="44.83271" lon="-0.51421">
        <ele>2</ele>
        <time>2016-01-13T13:12:30Z</time>
      </trkpt>
      <trkpt lat="44.83278" lon="-0.51416">
        <ele>4</ele>
        <time>2016-01-13T13:12:36Z</time>
      </trkpt>
      <trkpt lat="44.83285" lon="-0.51411">
        <ele>6</ele>
        <time>2016-01-13T13:12:42Z</time>
      </trkpt>
      <trkpt lat="44.83293" lon="-0.51407">
        <ele>7</ele>
        <time>2016-01-13T13:12:48Z</time>
      </trkpt>
      <trkpt lat="44.83299" lon="-0.51401">
        <ele>7</ele>
        <time>2016-01-13T13:12:55Z</time>
      </trkpt>
      <trkpt lat="44.83306" lon="-0.51396">
        <ele>7</ele>
        <time>2016-01-13T13:13:01Z</time>
      </trkpt>
      <trkpt lat="44.83313" lon="-0.51388">
        <ele>6</ele>
        <time>2016-01-13T13:13:08Z</time>
      </trkpt>
      <trkpt lat="44.83321" lon="-0.51383">
        <ele>7</ele>
        <time>2016-01-13T13:13:15Z</time>
      </trkpt>
      <trkpt lat="44.83328" lon="-0.51378">
        <ele>9</ele>
        <time>2016-01-13T13:13:21Z</time>
      </trkpt>
      <trkpt lat="44.83335" lon="-0.51374">
        <ele>9</ele>
        <time>2016-01-13T13:13:28Z</time>
      </trkpt>
      <trkpt lat="44.83343" lon="-0.51369">
        <ele>9</ele>
        <time>2016-01-13T13:13:35Z</time>
      </trkpt>
      <trkpt lat="44.83351" lon="-0.51364">
        <ele>8</ele>
        <time>2016-01-13T13:13:42Z</time>
      </trkpt>
      <trkpt lat="44.83359" lon="-0.51362">
        <ele>6</ele>
        <time>2016-01-13T13:13:49Z</time>
      </trkpt>
      <trkpt lat="44.83367" lon="-0.51357">
        <ele>4</ele>
        <time>2016-01-13T13:13:56Z</time>
      </trkpt>
      <trkpt lat="44.83375" lon="-0.51351">
        <ele>5</ele>
        <time>2016-01-13T13:14:03Z</time>
      </trkpt>
      <trkpt lat="44.83382" lon="-0.51346">
        <ele>7</ele>
        <time>2016-01-13T13:14:10Z</time>
      </trkpt>
      <trkpt lat="44.83388" lon="-0.51338">
        <ele>6</ele>
        <time>2016-01-13T13:14:18Z</time>
      </trkpt>
      <trkpt lat="44.83396" lon="-0.51333">
        <ele>4</ele>
        <time>2016-01-13T13:14:26Z</time>
      </trkpt>
      <trkpt lat="44.83405" lon="-0.51329">
        <ele>5</ele>
        <time>2016-01-13T13:14:32Z</time>
      </trkpt>
      <trkpt lat="44.83413" lon="-0.51327">
        <ele>7</ele>
        <time>2016-01-13T13:14:38Z</time>
      </trkpt>
      <trkpt lat="44.8342" lon="-0.51323">
        <ele>9</ele>
        <time>2016-01-13T13:14:43Z</time>
      </trkpt>
      <trkpt lat="44.83428" lon="-0.51317">
        <ele>11</ele>
        <time>2016-01-13T13:14:49Z</time>
      </trkpt>
      <trkpt lat="44.83436" lon="-0.51312">
        <ele>11</ele>
        <time>2016-01-13T13:14:56Z</time>
      </trkpt>
      <trkpt lat="44.83443" lon="-0.51306">
        <ele>9</ele>
        <time>2016-01-13T13:15:04Z</time>
      </trkpt>
      <trkpt lat="44.8345" lon="-0.51303">
        <ele>8</ele>
        <time>2016-01-13T13:15:10Z</time>
      </trkpt>
      <trkpt lat="44.83458" lon="-0.51297">
        <ele>8</ele>
        <time>2016-01-13T13:15:16Z</time>
      </trkpt>
      <trkpt lat="44.83465" lon="-0.51293">
        <ele>7</ele>
        <time>2016-01-13T13:15:23Z</time>
      </trkpt>
      <trkpt lat="44.83472" lon="-0.51289">
        <ele>5</ele>
        <time>2016-01-13T13:15:29Z</time>
      </trkpt>
      <trkpt lat="44.83479" lon="-0.51284">
        <ele>3</ele>
        <time>2016-01-13T13:15:36Z</time>
      </trkpt>
      <trkpt lat="44.83487" lon="-0.51278">
        <ele>3</ele>
        <time>2016-01-13T13:15:43Z</time>
      </trkpt>
      <trkpt lat="44.83495" lon="-0.51272">
        <ele>2</ele>
        <time>2016-01-13T13:15:50Z</time>
      </trkpt>
      <trkpt lat="44.83502" lon="-0.51268">
        <ele>2</ele>
        <time>2016-01-13T13:15:56Z</time>
      </trkpt>
      <trkpt lat="44.83508" lon="-0.51262">
        <ele>63.9</ele>
        <time>2016-01-13T13:16:03Z</time>
      </trkpt>
      <trkpt lat="44.83515" lon="-0.51257">
        <ele>1</ele>
        <time>2016-01-13T13:16:09Z</time>
      </trkpt>
      <trkpt lat="44.83523" lon="-0.51254">
        <ele>2</ele>
        <time>2016-01-13T13:16:15Z</time>
      </trkpt>
      <trkpt lat="44.83531" lon="-0.51251">
        <ele>3</ele>
        <time>2016-01-13T13:16:22Z</time>
      </trkpt>
      <trkpt lat="44.83539" lon="-0.51248">
        <ele>3</ele>
        <time>2016-01-13T13:16:28Z</time>
      </trkpt>
      <trkpt lat="44.83548" lon="-0.51247">
        <ele>2</ele>
        <time>2016-01-13T13:16:35Z</time>
      </trkpt>
      <trkpt lat="44.83554" lon="-0.51242">
        <ele>1</ele>
        <time>2016-01-13T13:16:42Z</time>
      </trkpt>
      <trkpt lat="44.83561" lon="-0.51236">
        <ele>63.9</ele>
        <time>2016-01-13T13:16:49Z</time>
      </trkpt>
      <trkpt lat="44.8357" lon="-0.51232">
        <ele>1</ele>
        <time>2016-01-13T13:16:57Z</time>
      </trkpt>
      <trkpt lat="44.83577" lon="-0.51224">
        <ele>64</ele>
        <time>2016-01-13T13:17:04Z</time>
      </trkpt>
      <trkpt lat="44.83584" lon="-0.5122">
        <ele>64.1</ele>
        <time>2016-01-13T13:17:11Z</time>
      </trkpt>
      <trkpt lat="44.83592" lon="-0.51216">
        <ele>2</ele>
        <time>2016-01-13T13:17:17Z</time>
      </trkpt>
      <trkpt lat="44.836" lon="-0.51211">
        <ele>2</ele>
        <time>2016-01-13T13:17:24Z</time>
      </trkpt>
      <trkpt lat="44.83608" lon="-0.51206">
        <ele>5</ele>
        <time>2016-01-13T13:17:31Z</time>
      </trkpt>
      <trkpt lat="44.83616" lon="-0.51202">
        <ele>6</ele>
        <time>2016-01-13T13:17:38Z</time>
      </trkpt>
      <trkpt lat="44.83623" lon="-0.51195">
        <ele>5</ele>
        <time>2016-01-13T13:17:48Z</time>
      </trkpt>
      <trkpt lat="44.83629" lon="-0.51187">
        <ele>-3</ele>
        <time>2016-01-13T13:17:58Z</time>
      </trkpt>
      <trkpt lat="44.83634" lon="-0.51177">
        <ele>-8</ele>
        <time>2016-01-13T13:18:05Z</time>
      </trkpt>
      <trkpt lat="44.83647" lon="-0.51176">
        <ele>-1</ele>
        <time>2016-01-13T13:18:10Z</time>
      </trkpt>
      <trkpt lat="44.83653" lon="-0.51169">
        <ele>63.6</ele>
        <time>2016-01-13T13:18:16Z</time>
      </trkpt>
      <trkpt lat="44.8366" lon="-0.51163">
        <ele>2</ele>
        <time>2016-01-13T13:18:22Z</time>
      </trkpt>
      <trkpt lat="44.83664" lon="-0.51151">
        <ele>63.4</ele>
        <time>2016-01-13T13:18:32Z</time>
      </trkpt>
      <trkpt lat="44.83669" lon="-0.51142">
        <ele>-3</ele>
        <time>2016-01-13T13:18:41Z</time>
      </trkpt>
      <trkpt lat="44.83681" lon="-0.5114">
        <ele>1</ele>
        <time>2016-01-13T13:18:46Z</time>
      </trkpt>
      <trkpt lat="44.83688" lon="-0.51139">
        <ele>5</ele>
        <time>2016-01-13T13:18:50Z</time>
      </trkpt>
      <trkpt lat="44.83696" lon="-0.51136">
        <ele>8</ele>
        <time>2016-01-13T13:18:56Z</time>
      </trkpt>
      <trkpt lat="44.83704" lon="-0.5113">
        <ele>8</ele>
        <time>2016-01-13T13:19:03Z</time>
      </trkpt>
      <trkpt lat="44.83711" lon="-0.51124">
        <ele>5</ele>
        <time>2016-01-13T13:19:11Z</time>
      </trkpt>
      <trkpt lat="44.83719" lon="-0.51119">
        <ele>4</ele>
        <time>2016-01-13T13:19:18Z</time>
      </trkpt>
      <trkpt lat="44.83726" lon="-0.51111">
        <ele>3</ele>
        <time>2016-01-13T13:19:27Z</time>
      </trkpt>
      <trkpt lat="44.83733" lon="-0.51107">
        <ele>4</ele>
        <time>2016-01-13T13:19:34Z</time>
      </trkpt>
      <trkpt lat="44.83741" lon="-0.51104">
        <ele>4</ele>
        <time>2016-01-13T13:19:41Z</time>
      </trkpt>
      <trkpt lat="44.83749" lon="-0.51101">
        <ele>4</ele>
        <time>2016-01-13T13:19:47Z</time>
      </trkpt>
      <trkpt lat="44.83756" lon="-0.51096">
        <ele>4</ele>
        <time>2016-01-13T13:19:54Z</time>
      </trkpt>
      <trkpt lat="44.83763" lon="-0.5109">
        <ele>3</ele>
        <time>2016-01-13T13:20:01Z</time>
      </trkpt>
      <trkpt lat="44.83769" lon="-0.5108">
        <ele>2</ele>
        <time>2016-01-13T13:20:09Z</time>
      </trkpt>
      <trkpt lat="44.83773" lon="-0.51069">
        <ele>9</ele>
        <time>2016-01-13T13:20:16Z</time>
      </trkpt>
      <trkpt lat="44.83776" lon="-0.51058">
        <ele>9</ele>
        <time>2016-01-13T13:20:25Z</time>
      </trkpt>
      <trkpt lat="44.83782" lon="-0.5105">
        <ele>9</ele>
        <time>2016-01-13T13:20:31Z</time>
      </trkpt>
      <trkpt lat="44.83787" lon="-0.51041">
        <ele>8</ele>
        <time>2016-01-13T13:20:38Z</time>
      </trkpt>
      <trkpt lat="44.8379" lon="-0.5103">
        <ele>10</ele>
        <time>2016-01-13T13:20:45Z</time>
      </trkpt>
      <trkpt lat="44.83794" lon="-0.51018">
        <ele>10</ele>
        <time>2016-01-13T13:20:52Z</time>
      </trkpt>
      <trkpt lat="44.83797" lon="-0.51007">
        <ele>11</ele>
        <time>2016-01-13T13:21:01Z</time>
      </trkpt>
      <trkpt lat="44.83802" lon="-0.50996">
        <ele>16</ele>
        <time>2016-01-13T13:21:08Z</time>
      </trkpt>
      <trkpt lat="44.83805" lon="-0.50986">
        <ele>18</ele>
        <time>2016-01-13T13:21:16Z</time>
      </trkpt>
      <trkpt lat="44.83807" lon="-0.50975">
        <ele>18</ele>
        <time>2016-01-13T13:21:22Z</time>
      </trkpt>
      <trkpt lat="44.83809" lon="-0.50965">
        <ele>15</ele>
        <time>2016-01-13T13:21:28Z</time>
      </trkpt>
      <trkpt lat="44.83813" lon="-0.50955">
        <ele>14</ele>
        <time>2016-01-13T13:21:34Z</time>
      </trkpt>
      <trkpt lat="44.83817" lon="-0.50944">
        <ele>13</ele>
        <time>2016-01-13T13:21:43Z</time>
      </trkpt>
      <trkpt lat="44.83822" lon="-0.50935">
        <ele>10</ele>
        <time>2016-01-13T13:21:50Z</time>
      </trkpt>
      <trkpt lat="44.83826" lon="-0.50925">
        <ele>12</ele>
        <time>2016-01-13T13:21:57Z</time>
      </trkpt>
      <trkpt lat="44.8383" lon="-0.50915">
        <ele>12</ele>
        <time>2016-01-13T13:22:04Z</time>
      </trkpt>
      <trkpt lat="44.83834" lon="-0.50906">
        <ele>11</ele>
        <time>2016-01-13T13:22:10Z</time>
      </trkpt>
      <trkpt lat="44.83839" lon="-0.50897">
        <ele>12</ele>
        <time>2016-01-13T13:22:15Z</time>
      </trkpt>
      <trkpt lat="44.83842" lon="-0.50886">
        <ele>11</ele>
        <time>2016-01-13T13:22:21Z</time>
      </trkpt>
      <trkpt lat="44.83847" lon="-0.50877">
        <ele>12</ele>
        <time>2016-01-13T13:22:27Z</time>
      </trkpt>
      <trkpt lat="44.83853" lon="-0.50869">
        <ele>12</ele>
        <time>2016-01-13T13:22:33Z</time>
      </trkpt>
      <trkpt lat="44.83859" lon="-0.50863">
        <ele>13</ele>
        <time>2016-01-13T13:22:39Z</time>
      </trkpt>
      <trkpt lat="44.83866" lon="-0.50856">
        <ele>12</ele>
        <time>2016-01-13T13:22:46Z</time>
      </trkpt>
      <trkpt lat="44.83873" lon="-0.50849">
        <ele>12</ele>
        <time>2016-01-13T13:22:54Z</time>
      </trkpt>
      <trkpt lat="44.83879" lon="-0.50841">
        <ele>11</ele>
        <time>2016-01-13T13:23:01Z</time>
      </trkpt>
      <trkpt lat="44.83886" lon="-0.50833">
        <ele>12</ele>
        <time>2016-01-13T13:23:07Z</time>
      </trkpt>
      <trkpt lat="44.83893" lon="-0.50826">
        <ele>11</ele>
        <time>2016-01-13T13:23:14Z</time>
      </trkpt>
      <trkpt lat="44.839" lon="-0.50821">
        <ele>11</ele>
        <time>2016-01-13T13:23:20Z</time>
      </trkpt>
      <trkpt lat="44.83908" lon="-0.50816">
        <ele>12</ele>
        <time>2016-01-13T13:23:26Z</time>
      </trkpt>
      <trkpt lat="44.83913" lon="-0.50807">
        <ele>12</ele>
        <time>2016-01-13T13:23:38Z</time>
      </trkpt>
      <trkpt lat="44.8392" lon="-0.50801">
        <ele>14</ele>
        <time>2016-01-13T13:23:43Z</time>
      </trkpt>
      <trkpt lat="44.83927" lon="-0.50796">
        <ele>18</ele>
        <time>2016-01-13T13:23:50Z</time>
      </trkpt>
      <trkpt lat="44.83935" lon="-0.50792">
        <ele>19</ele>
        <time>2016-01-13T13:23:57Z</time>
      </trkpt>
      <trkpt lat="44.83943" lon="-0.5079">
        <ele>20</ele>
        <time>2016-01-13T13:24:02Z</time>
      </trkpt>
      <trkpt lat="44.8395" lon="-0.50787">
        <ele>22</ele>
        <time>2016-01-13T13:24:08Z</time>
      </trkpt>
      <trkpt lat="44.83959" lon="-0.50786">
        <ele>25</ele>
        <time>2016-01-13T13:24:14Z</time>
      </trkpt>
      <trkpt lat="44.83968" lon="-0.50785">
        <ele>22</ele>
        <time>2016-01-13T13:24:21Z</time>
      </trkpt>
      <trkpt lat="44.83975" lon="-0.50781">
        <ele>23</ele>
        <time>2016-01-13T13:24:29Z</time>
      </trkpt>
      <trkpt lat="44.83984" lon="-0.50778">
        <ele>24</ele>
        <time>2016-01-13T13:24:35Z</time>
      </trkpt>
      <trkpt lat="44.83992" lon="-0.50774">
        <ele>25</ele>
        <time>2016-01-13T13:24:41Z</time>
      </trkpt>
      <trkpt lat="44.84" lon="-0.50771">
        <ele>28</ele>
        <time>2016-01-13T13:24:48Z</time>
      </trkpt>
      <trkpt lat="44.84007" lon="-0.50767">
        <ele>29</ele>
        <time>2016-01-13T13:24:55Z</time>
      </trkpt>
      <trkpt lat="44.84014" lon="-0.50763">
        <ele>31</ele>
        <time>2016-01-13T13:25:01Z</time>
      </trkpt>
      <trkpt lat="44.84023" lon="-0.50762">
        <ele>32</ele>
        <time>2016-01-13T13:25:07Z</time>
      </trkpt>
      <trkpt lat="44.84031" lon="-0.50758">
        <ele>32</ele>
        <time>2016-01-13T13:25:15Z</time>
      </trkpt>
      <trkpt lat="44.84038" lon="-0.50753">
        <ele>27</ele>
        <time>2016-01-13T13:25:22Z</time>
      </trkpt>
      <trkpt lat="44.84046" lon="-0.50747">
        <ele>23</ele>
        <time>2016-01-13T13:25:29Z</time>
      </trkpt>
      <trkpt lat="44.84054" lon="-0.50747">
        <ele>24</ele>
        <time>2016-01-13T13:25:37Z</time>
      </trkpt>
      <trkpt lat="44.84061" lon="-0.50741">
        <ele>25</ele>
        <time>2016-01-13T13:26:06Z</time>
      </trkpt>
      <trkpt lat="44.8407" lon="-0.50737">
        <ele>27</ele>
        <time>2016-01-13T13:26:11Z</time>
      </trkpt>
      <trkpt lat="44.84077" lon="-0.50733">
        <ele>28</ele>
        <time>2016-01-13T13:26:20Z</time>
      </trkpt>
      <trkpt lat="44.84085" lon="-0.50729">
        <ele>24</ele>
        <time>2016-01-13T13:26:26Z</time>
      </trkpt>
      <trkpt lat="44.84092" lon="-0.50724">
        <ele>23</ele>
        <time>2016-01-13T13:26:32Z</time>
      </trkpt>
      <trkpt lat="44.84099" lon="-0.50721">
        <ele>23</ele>
        <time>2016-01-13T13:26:37Z</time>
      </trkpt>
      <trkpt lat="44.84106" lon="-0.50715">
        <ele>21</ele>
        <time>2016-01-13T13:26:44Z</time>
      </trkpt>
      <trkpt lat="44.84114" lon="-0.50709">
        <ele>22</ele>
        <time>2016-01-13T13:26:50Z</time>
      </trkpt>
      <trkpt lat="44.8412" lon="-0.50701">
        <ele>22</ele>
        <time>2016-01-13T13:26:57Z</time>
      </trkpt>
      <trkpt lat="44.84127" lon="-0.50695">
        <ele>23</ele>
        <time>2016-01-13T13:27:03Z</time>
      </trkpt>
      <trkpt lat="44.84133" lon="-0.50689">
        <ele>21</ele>
        <time>2016-01-13T13:27:09Z</time>
      </trkpt>
      <trkpt lat="44.8414" lon="-0.50681">
        <ele>21</ele>
        <time>2016-01-13T13:27:16Z</time>
      </trkpt>
      <trkpt lat="44.84144" lon="-0.50671">
        <ele>20</ele>
        <time>2016-01-13T13:27:22Z</time>
      </trkpt>
      <trkpt lat="44.84148" lon="-0.5066">
        <ele>19</ele>
        <time>2016-01-13T13:27:28Z</time>
      </trkpt>
      <trkpt lat="44.84154" lon="-0.50651">
        <ele>19</ele>
        <time>2016-01-13T13:27:35Z</time>
      </trkpt>
      <trkpt lat="44.84155" lon="-0.5064">
        <ele>19</ele>
        <time>2016-01-13T13:27:41Z</time>
      </trkpt>
      <trkpt lat="44.84158" lon="-0.50629">
        <ele>19</ele>
        <time>2016-01-13T13:27:48Z</time>
      </trkpt>
      <trkpt lat="44.84165" lon="-0.50621">
        <ele>19</ele>
        <time>2016-01-13T13:27:56Z</time>
      </trkpt>
      <trkpt lat="44.84172" lon="-0.50617">
        <ele>20</ele>
        <time>2016-01-13T13:28:03Z</time>
      </trkpt>
      <trkpt lat="44.84181" lon="-0.50614">
        <ele>22</ele>
        <time>2016-01-13T13:28:09Z</time>
      </trkpt>
      <trkpt lat="44.84189" lon="-0.50614">
        <ele>22</ele>
        <time>2016-01-13T13:28:16Z</time>
      </trkpt>
      <trkpt lat="44.84197" lon="-0.50619">
        <ele>23</ele>
        <time>2016-01-13T13:28:24Z</time>
      </trkpt>
      <trkpt lat="44.84203" lon="-0.50628">
        <ele>20</ele>
        <time>2016-01-13T13:28:33Z</time>
      </trkpt>
      <trkpt lat="44.8421" lon="-0.50635">
        <ele>22</ele>
        <time>2016-01-13T13:28:40Z</time>
      </trkpt>
      <trkpt lat="44.84213" lon="-0.50644">
        <ele>21</ele>
        <time>2016-01-13T13:28:46Z</time>
      </trkpt>
      <trkpt lat="44.84218" lon="-0.50653">
        <ele>18</ele>
        <time>2016-01-13T13:28:52Z</time>
      </trkpt>
      <trkpt lat="44.84223" lon="-0.50664">
        <ele>18</ele>
        <time>2016-01-13T13:28:58Z</time>
      </trkpt>
      <trkpt lat="44.84229" lon="-0.50672">
        <ele>17</ele>
        <time>2016-01-13T13:29:04Z</time>
      </trkpt>
      <trkpt lat="44.84234" lon="-0.50681">
        <ele>16</ele>
        <time>2016-01-13T13:29:11Z</time>
      </trkpt>
      <trkpt lat="44.84238" lon="-0.50692">
        <ele>17</ele>
        <time>2016-01-13T13:29:17Z</time>
      </trkpt>
      <trkpt lat="44.84244" lon="-0.507">
        <ele>23</ele>
        <time>2016-01-13T13:29:24Z</time>
      </trkpt>
      <trkpt lat="44.84248" lon="-0.50711">
        <ele>25</ele>
        <time>2016-01-13T13:29:31Z</time>
      </trkpt>
      <trkpt lat="44.84256" lon="-0.50715">
        <ele>24</ele>
        <time>2016-01-13T13:29:37Z</time>
      </trkpt>
      <trkpt lat="44.84263" lon="-0.50716">
        <ele>21</ele>
        <time>2016-01-13T13:29:43Z</time>
      </trkpt>
      <trkpt lat="44.84271" lon="-0.50717">
        <ele>20</ele>
        <time>2016-01-13T13:29:48Z</time>
      </trkpt>
      <trkpt lat="44.84279" lon="-0.50717">
        <ele>18</ele>
        <time>2016-01-13T13:29:56Z</time>
      </trkpt>
      <trkpt lat="44.84288" lon="-0.50719">
        <ele>13</ele>
        <time>2016-01-13T13:30:04Z</time>
      </trkpt>
      <trkpt lat="44.84295" lon="-0.50727">
        <ele>15</ele>
        <time>2016-01-13T13:30:13Z</time>
      </trkpt>
      <trkpt lat="44.84296" lon="-0.50738">
        <ele>17</ele>
        <time>2016-01-13T13:30:20Z</time>
      </trkpt>
      <trkpt lat="44.84296" lon="-0.5075">
        <ele>16</ele>
        <time>2016-01-13T13:30:27Z</time>
      </trkpt>
      <trkpt lat="44.84295" lon="-0.50763">
        <ele>16</ele>
        <time>2016-01-13T13:30:34Z</time>
      </trkpt>
      <trkpt lat="44.84296" lon="-0.50774">
        <ele>16</ele>
        <time>2016-01-13T13:30:41Z</time>
      </trkpt>
      <trkpt lat="44.84299" lon="-0.50786">
        <ele>16</ele>
        <time>2016-01-13T13:30:46Z</time>
      </trkpt>
      <trkpt lat="44.84299" lon="-0.50797">
        <ele>14</ele>
        <time>2016-01-13T13:30:52Z</time>
      </trkpt>
      <trkpt lat="44.84298" lon="-0.5081">
        <ele>14</ele>
        <time>2016-01-13T13:31:00Z</time>
      </trkpt>
      <trkpt lat="44.84298" lon="-0.50822">
        <ele>15</ele>
        <time>2016-01-13T13:31:07Z</time>
      </trkpt>
      <trkpt lat="44.84298" lon="-0.50833">
        <ele>16</ele>
        <time>2016-01-13T13:31:12Z</time>
      </trkpt>
      <trkpt lat="44.84295" lon="-0.50844">
        <ele>14</ele>
        <time>2016-01-13T13:31:19Z</time>
      </trkpt>
      <trkpt lat="44.84292" lon="-0.50853">
        <ele>14</ele>
        <time>2016-01-13T13:31:24Z</time>
      </trkpt>
      <trkpt lat="44.84289" lon="-0.50865">
        <ele>15</ele>
        <time>2016-01-13T13:31:30Z</time>
      </trkpt>
      <trkpt lat="44.84286" lon="-0.50875">
        <ele>15</ele>
        <time>2016-01-13T13:31:36Z</time>
      </trkpt>
      <trkpt lat="44.84285" lon="-0.50886">
        <ele>15</ele>
        <time>2016-01-13T13:31:42Z</time>
      </trkpt>
      <trkpt lat="44.84283" lon="-0.50898">
        <ele>14</ele>
        <time>2016-01-13T13:31:49Z</time>
      </trkpt>
      <trkpt lat="44.8428" lon="-0.50909">
        <ele>15</ele>
        <time>2016-01-13T13:31:55Z</time>
      </trkpt>
      <trkpt lat="44.8428" lon="-0.50921">
        <ele>13</ele>
        <time>2016-01-13T13:32:01Z</time>
      </trkpt>
      <trkpt lat="44.84279" lon="-0.50933">
        <ele>11</ele>
        <time>2016-01-13T13:32:08Z</time>
      </trkpt>
      <trkpt lat="44.84277" lon="-0.50945">
        <ele>11</ele>
        <time>2016-01-13T13:32:15Z</time>
      </trkpt>
      <trkpt lat="44.84276" lon="-0.50957">
        <ele>11</ele>
        <time>2016-01-13T13:32:22Z</time>
      </trkpt>
      <trkpt lat="44.84275" lon="-0.50969">
        <ele>12</ele>
        <time>2016-01-13T13:32:28Z</time>
      </trkpt>
      <trkpt lat="44.84275" lon="-0.5098">
        <ele>13</ele>
        <time>2016-01-13T13:32:34Z</time>
      </trkpt>
      <trkpt lat="44.84275" lon="-0.50992">
        <ele>14</ele>
        <time>2016-01-13T13:32:41Z</time>
      </trkpt>
      <trkpt lat="44.84279" lon="-0.51004">
        <ele>13</ele>
        <time>2016-01-13T13:32:48Z</time>
      </trkpt>
      <trkpt lat="44.84281" lon="-0.51014">
        <ele>12</ele>
        <time>2016-01-13T13:32:54Z</time>
      </trkpt>
      <trkpt lat="44.84284" lon="-0.51025">
        <ele>9</ele>
        <time>2016-01-13T13:33:01Z</time>
      </trkpt>
      <trkpt lat="44.84286" lon="-0.51037">
        <ele>10</ele>
        <time>2016-01-13T13:33:09Z</time>
      </trkpt>
      <trkpt lat="44.84287" lon="-0.51049">
        <ele>11</ele>
        <time>2016-01-13T13:33:16Z</time>
      </trkpt>
      <trkpt lat="44.84288" lon="-0.5106">
        <ele>17</ele>
        <time>2016-01-13T13:33:21Z</time>
      </trkpt>
      <trkpt lat="44.84291" lon="-0.51071">
        <ele>14</ele>
        <time>2016-01-13T13:33:28Z</time>
      </trkpt>
      <trkpt lat="44.84294" lon="-0.51082">
        <ele>16</ele>
        <time>2016-01-13T13:33:33Z</time>
      </trkpt>
      <trkpt lat="44.84296" lon="-0.51093">
        <ele>17</ele>
        <time>2016-01-13T13:33:38Z</time>
      </trkpt>
      <trkpt lat="44.843" lon="-0.51104">
        <ele>16</ele>
        <time>2016-01-13T13:33:44Z</time>
      </trkpt>
      <trkpt lat="44.84304" lon="-0.51113">
        <ele>17</ele>
        <time>2016-01-13T13:33:50Z</time>
      </trkpt>
      <trkpt lat="44.84311" lon="-0.51119">
        <ele>20</ele>
        <time>2016-01-13T13:33:58Z</time>
      </trkpt>
      <trkpt lat="44.84318" lon="-0.51126">
        <ele>34</ele>
        <time>2016-01-13T13:34:06Z</time>
      </trkpt>
      <trkpt lat="44.84318" lon="-0.51137">
        <ele>37</ele>
        <time>2016-01-13T13:34:13Z</time>
      </trkpt>
      <trkpt lat="44.84314" lon="-0.51146">
        <ele>33</ele>
        <time>2016-01-13T13:34:19Z</time>
      </trkpt>
      <trkpt lat="44.84313" lon="-0.51158">
        <ele>32</ele>
        <time>2016-01-13T13:34:25Z</time>
      </trkpt>
      <trkpt lat="44.84314" lon="-0.51169">
        <ele>25</ele>
        <time>2016-01-13T13:34:32Z</time>
      </trkpt>
      <trkpt lat="44.84316" lon="-0.51181">
        <ele>21</ele>
        <time>2016-01-13T13:34:38Z</time>
      </trkpt>
      <trkpt lat="44.84318" lon="-0.51192">
        <ele>19</ele>
        <time>2016-01-13T13:34:45Z</time>
      </trkpt>
      <trkpt lat="44.84321" lon="-0.51203">
        <ele>18</ele>
        <time>2016-01-13T13:34:51Z</time>
      </trkpt>
      <trkpt lat="44.84324" lon="-0.51214">
        <ele>18</ele>
        <time>2016-01-13T13:34:57Z</time>
      </trkpt>
      <trkpt lat="44.84327" lon="-0.51225">
        <ele>21</ele>
        <time>2016-01-13T13:35:04Z</time>
      </trkpt>
      <trkpt lat="44.84329" lon="-0.51236">
        <ele>26</ele>
        <time>2016-01-13T13:35:11Z</time>
      </trkpt>
      <trkpt lat="44.84331" lon="-0.51249">
        <ele>25</ele>
        <time>2016-01-13T13:35:18Z</time>
      </trkpt>
      <trkpt lat="44.8433" lon="-0.51261">
        <ele>22</ele>
        <time>2016-01-13T13:35:25Z</time>
      </trkpt>
      <trkpt lat="44.84331" lon="-0.51273">
        <ele>22</ele>
        <time>2016-01-13T13:35:32Z</time>
      </trkpt>
      <trkpt lat="44.84332" lon="-0.51285">
        <ele>19</ele>
        <time>2016-01-13T13:35:39Z</time>
      </trkpt>
      <trkpt lat="44.84333" lon="-0.51296">
        <ele>18</ele>
        <time>2016-01-13T13:35:45Z</time>
      </trkpt>
      <trkpt lat="44.84334" lon="-0.51309">
        <ele>15</ele>
        <time>2016-01-13T13:35:52Z</time>
      </trkpt>
      <trkpt lat="44.84332" lon="-0.51319">
        <ele>15</ele>
        <time>2016-01-13T13:35:58Z</time>
      </trkpt>
      <trkpt lat="44.84331" lon="-0.5133">
        <ele>15</ele>
        <time>2016-01-13T13:36:04Z</time>
      </trkpt>
      <trkpt lat="44.84334" lon="-0.51341">
        <ele>17</ele>
        <time>2016-01-13T13:36:11Z</time>
      </trkpt>
      <trkpt lat="44.84336" lon="-0.51352">
        <ele>17</ele>
        <time>2016-01-13T13:36:18Z</time>
      </trkpt>
      <trkpt lat="44.84333" lon="-0.51364">
        <ele>20</ele>
        <time>2016-01-13T13:36:24Z</time>
      </trkpt>
      <trkpt lat="44.84333" lon="-0.51376">
        <ele>20</ele>
        <time>2016-01-13T13:36:30Z</time>
      </trkpt>
      <trkpt lat="44.84332" lon="-0.51387">
        <ele>22</ele>
        <time>2016-01-13T13:36:35Z</time>
      </trkpt>
      <trkpt lat="44.84332" lon="-0.51398">
        <ele>24</ele>
        <time>2016-01-13T13:36:40Z</time>
      </trkpt>
      <trkpt lat="44.8433" lon="-0.51409">
        <ele>27</ele>
        <time>2016-01-13T13:36:45Z</time>
      </trkpt>
      <trkpt lat="44.8433" lon="-0.5142">
        <ele>27</ele>
        <time>2016-01-13T13:36:50Z</time>
      </trkpt>
      <trkpt lat="44.84328" lon="-0.51432">
        <ele>25</ele>
        <time>2016-01-13T13:36:56Z</time>
      </trkpt>
      <trkpt lat="44.84325" lon="-0.51443">
        <ele>22</ele>
        <time>2016-01-13T13:37:03Z</time>
      </trkpt>
      <trkpt lat="44.8432" lon="-0.51453">
        <ele>20</ele>
        <time>2016-01-13T13:37:11Z</time>
      </trkpt>
      <trkpt lat="44.84317" lon="-0.51465">
        <ele>15</ele>
        <time>2016-01-13T13:37:19Z</time>
      </trkpt>
      <trkpt lat="44.84313" lon="-0.51473">
        <ele>14</ele>
        <time>2016-01-13T13:37:24Z</time>
      </trkpt>
      <trkpt lat="44.84307" lon="-0.51481">
        <ele>12</ele>
        <time>2016-01-13T13:37:29Z</time>
      </trkpt>
      <trkpt lat="44.84301" lon="-0.51488">
        <ele>9</ele>
        <time>2016-01-13T13:37:34Z</time>
      </trkpt>
      <trkpt lat="44.84296" lon="-0.51497">
        <ele>7</ele>
        <time>2016-01-13T13:37:39Z</time>
      </trkpt>
      <trkpt lat="44.84291" lon="-0.51507">
        <ele>8</ele>
        <time>2016-01-13T13:37:45Z</time>
      </trkpt>
      <trkpt lat="44.84286" lon="-0.51517">
        <ele>9</ele>
        <time>2016-01-13T13:37:51Z</time>
      </trkpt>
      <trkpt lat="44.84283" lon="-0.51528">
        <ele>10</ele>
        <time>2016-01-13T13:37:58Z</time>
      </trkpt>
      <trkpt lat="44.84278" lon="-0.51538">
        <ele>10</ele>
        <time>2016-01-13T13:38:05Z</time>
      </trkpt>
      <trkpt lat="44.84274" lon="-0.51548">
        <ele>12</ele>
        <time>2016-01-13T13:38:12Z</time>
      </trkpt>
      <trkpt lat="44.84272" lon="-0.51558">
        <ele>9</ele>
        <time>2016-01-13T13:38:19Z</time>
      </trkpt>
      <trkpt lat="44.84267" lon="-0.51567">
        <ele>10</ele>
        <time>2016-01-13T13:38:24Z</time>
      </trkpt>
      <trkpt lat="44.84262" lon="-0.51576">
        <ele>11</ele>
        <time>2016-01-13T13:38:29Z</time>
      </trkpt>
      <trkpt lat="44.84254" lon="-0.5158">
        <ele>13</ele>
        <time>2016-01-13T13:38:37Z</time>
      </trkpt>
      <trkpt lat="44.84247" lon="-0.51573">
        <ele>13</ele>
        <time>2016-01-13T13:38:43Z</time>
      </trkpt>
      <trkpt lat="44.84239" lon="-0.51566">
        <ele>12</ele>
        <time>2016-01-13T13:38:49Z</time>
      </trkpt>
      <trkpt lat="44.84232" lon="-0.51566">
        <ele>15</ele>
        <time>2016-01-13T13:38:56Z</time>
      </trkpt>
      <trkpt lat="44.84224" lon="-0.51564">
        <ele>15</ele>
        <time>2016-01-13T13:39:07Z</time>
      </trkpt>
      <trkpt lat="44.84217" lon="-0.5156">
        <ele>14</ele>
        <time>2016-01-13T13:39:12Z</time>
      </trkpt>
      <trkpt lat="44.8421" lon="-0.51556">
        <ele>13</ele>
        <time>2016-01-13T13:39:17Z</time>
      </trkpt>
      <trkpt lat="44.84203" lon="-0.51551">
        <ele>12</ele>
        <time>2016-01-13T13:39:22Z</time>
      </trkpt>
      <trkpt lat="44.84195" lon="-0.51548">
        <ele>14</ele>
        <time>2016-01-13T13:39:27Z</time>
      </trkpt>
      <trkpt lat="44.84187" lon="-0.51546">
        <ele>13</ele>
        <time>2016-01-13T13:39:32Z</time>
      </trkpt>
      <trkpt lat="44.84179" lon="-0.51547">
        <ele>13</ele>
        <time>2016-01-13T13:39:39Z</time>
      </trkpt>
      <trkpt lat="44.8417" lon="-0.51551">
        <ele>10</ele>
        <time>2016-01-13T13:39:46Z</time>
      </trkpt>
      <trkpt lat="44.84162" lon="-0.51551">
        <ele>9</ele>
        <time>2016-01-13T13:39:51Z</time>
      </trkpt>
      <trkpt lat="44.84155" lon="-0.51555">
        <ele>9</ele>
        <time>2016-01-13T13:39:56Z</time>
      </trkpt>
      <trkpt lat="44.84148" lon="-0.51562">
        <ele>9</ele>
        <time>2016-01-13T13:40:02Z</time>
      </trkpt>
      <trkpt lat="44.84141" lon="-0.5157">
        <ele>9</ele>
        <time>2016-01-13T13:40:08Z</time>
      </trkpt>
      <trkpt lat="44.84135" lon="-0.51576">
        <ele>9</ele>
        <time>2016-01-13T13:40:15Z</time>
      </trkpt>
      <trkpt lat="44.84128" lon="-0.51582">
        <ele>9</ele>
        <time>2016-01-13T13:40:21Z</time>
      </trkpt>
      <trkpt lat="44.8412" lon="-0.51588">
        <ele>9</ele>
        <time>2016-01-13T13:40:27Z</time>
      </trkpt>
      <trkpt lat="44.84112" lon="-0.51593">
        <ele>8</ele>
        <time>2016-01-13T13:40:33Z</time>
      </trkpt>
      <trkpt lat="44.84104" lon="-0.51598">
        <ele>9</ele>
        <time>2016-01-13T13:40:39Z</time>
      </trkpt>
      <trkpt lat="44.84096" lon="-0.516">
        <ele>11</ele>
        <time>2016-01-13T13:40:45Z</time>
      </trkpt>
      <trkpt lat="44.84088" lon="-0.51601">
        <ele>13</ele>
        <time>2016-01-13T13:40:51Z</time>
      </trkpt>
      <trkpt lat="44.8408" lon="-0.51602">
        <ele>12</ele>
        <time>2016-01-13T13:40:57Z</time>
      </trkpt>
      <trkpt lat="44.84072" lon="-0.51603">
        <ele>11</ele>
        <time>2016-01-13T13:41:03Z</time>
      </trkpt>
      <trkpt lat="44.84063" lon="-0.51606">
        <ele>8</ele>
        <time>2016-01-13T13:41:10Z</time>
      </trkpt>
      <trkpt lat="44.84057" lon="-0.51608">
        <ele>6</ele>
        <time>2016-01-13T13:41:15Z</time>
      </trkpt>
      <trkpt lat="44.84049" lon="-0.51612">
        <ele>4</ele>
        <time>2016-01-13T13:41:20Z</time>
      </trkpt>
      <trkpt lat="44.84042" lon="-0.51618">
        <ele>3</ele>
        <time>2016-01-13T13:41:26Z</time>
      </trkpt>
      <trkpt lat="44.84036" lon="-0.51626">
        <ele>8</ele>
        <time>2016-01-13T13:41:32Z</time>
      </trkpt>
      <trkpt lat="44.84033" lon="-0.51637">
        <ele>12</ele>
        <time>2016-01-13T13:41:38Z</time>
      </trkpt>
      <trkpt lat="44.84032" lon="-0.51649">
        <ele>10</ele>
        <time>2016-01-13T13:41:44Z</time>
      </trkpt>
      <trkpt lat="44.84029" lon="-0.51661">
        <ele>8</ele>
        <time>2016-01-13T13:41:50Z</time>
      </trkpt>
      <trkpt lat="44.84028" lon="-0.51672">
        <ele>7</ele>
        <time>2016-01-13T13:41:56Z</time>
      </trkpt>
      <trkpt lat="44.84025" lon="-0.51684">
        <ele>6</ele>
        <time>2016-01-13T13:42:03Z</time>
      </trkpt>
      <trkpt lat="44.84021" lon="-0.51694">
        <ele>4</ele>
        <time>2016-01-13T13:42:09Z</time>
      </trkpt>
      <trkpt lat="44.84017" lon="-0.51705">
        <ele>3</ele>
        <time>2016-01-13T13:42:15Z</time>
      </trkpt>
      <trkpt lat="44.84015" lon="-0.51716">
        <ele>3</ele>
        <time>2016-01-13T13:42:21Z</time>
      </trkpt>
      <trkpt lat="44.84014" lon="-0.51727">
        <ele>4</ele>
        <time>2016-01-13T13:42:27Z</time>
      </trkpt>
      <trkpt lat="44.84013" lon="-0.51738">
        <ele>5</ele>
        <time>2016-01-13T13:42:33Z</time>
      </trkpt>
      <trkpt lat="44.84013" lon="-0.51749">
        <ele>8</ele>
        <time>2016-01-13T13:42:39Z</time>
      </trkpt>
      <trkpt lat="44.84013" lon="-0.51762">
        <ele>9</ele>
        <time>2016-01-13T13:42:45Z</time>
      </trkpt>
      <trkpt lat="44.84015" lon="-0.51772">
        <ele>10</ele>
        <time>2016-01-13T13:42:50Z</time>
      </trkpt>
      <trkpt lat="44.84014" lon="-0.51785">
        <ele>11</ele>
        <time>2016-01-13T13:42:56Z</time>
      </trkpt>
      <trkpt lat="44.84014" lon="-0.51797">
        <ele>12</ele>
        <time>2016-01-13T13:43:03Z</time>
      </trkpt>
      <trkpt lat="44.84015" lon="-0.51808">
        <ele>13</ele>
        <time>2016-01-13T13:43:10Z</time>
      </trkpt>
      <trkpt lat="44.84015" lon="-0.5182">
        <ele>14</ele>
        <time>2016-01-13T13:43:17Z</time>
      </trkpt>
      <trkpt lat="44.84016" lon="-0.51832">
        <ele>13</ele>
        <time>2016-01-13T13:43:24Z</time>
      </trkpt>
      <trkpt lat="44.84015" lon="-0.51843">
        <ele>12</ele>
        <time>2016-01-13T13:43:31Z</time>
      </trkpt>
      <trkpt lat="44.84019" lon="-0.51855">
        <ele>13</ele>
        <time>2016-01-13T13:43:39Z</time>
      </trkpt>
      <trkpt lat="44.8402" lon="-0.51867">
        <ele>14</ele>
        <time>2016-01-13T13:43:46Z</time>
      </trkpt>
      <trkpt lat="44.84022" lon="-0.51878">
        <ele>15</ele>
        <time>2016-01-13T13:43:52Z</time>
      </trkpt>
      <trkpt lat="44.84023" lon="-0.51889">
        <ele>16</ele>
        <time>2016-01-13T13:43:58Z</time>
      </trkpt>
      <trkpt lat="44.84024" lon="-0.51901">
        <ele>14</ele>
        <time>2016-01-13T13:44:05Z</time>
      </trkpt>
      <trkpt lat="44.84025" lon="-0.51913">
        <ele>15</ele>
        <time>2016-01-13T13:44:11Z</time>
      </trkpt>
      <trkpt lat="44.84025" lon="-0.51925">
        <ele>16</ele>
        <time>2016-01-13T13:44:18Z</time>
      </trkpt>
      <trkpt lat="44.84022" lon="-0.51937">
        <ele>18</ele>
        <time>2016-01-13T13:44:24Z</time>
      </trkpt>
      <trkpt lat="44.84023" lon="-0.51949">
        <ele>20</ele>
        <time>2016-01-13T13:44:30Z</time>
      </trkpt>
      <trkpt lat="44.84023" lon="-0.51961">
        <ele>21</ele>
        <time>2016-01-13T13:44:37Z</time>
      </trkpt>
      <trkpt lat="44.84024" lon="-0.51974">
        <ele>18</ele>
        <time>2016-01-13T13:44:44Z</time>
      </trkpt>
      <trkpt lat="44.84023" lon="-0.51986">
        <ele>16</ele>
        <time>2016-01-13T13:44:51Z</time>
      </trkpt>
      <trkpt lat="44.84023" lon="-0.51998">
        <ele>15</ele>
        <time>2016-01-13T13:44:58Z</time>
      </trkpt>
      <trkpt lat="44.84027" lon="-0.52008">
        <ele>15</ele>
        <time>2016-01-13T13:45:06Z</time>
      </trkpt>
      <trkpt lat="44.84035" lon="-0.52012">
        <ele>18</ele>
        <time>2016-01-13T13:45:13Z</time>
      </trkpt>
      <trkpt lat="44.84043" lon="-0.52016">
        <ele>20</ele>
        <time>2016-01-13T13:45:19Z</time>
      </trkpt>
      <trkpt lat="44.84051" lon="-0.52018">
        <ele>22</ele>
        <time>2016-01-13T13:45:25Z</time>
      </trkpt>
      <trkpt lat="44.84059" lon="-0.52018">
        <ele>22</ele>
        <time>2016-01-13T13:45:31Z</time>
      </trkpt>
      <trkpt lat="44.84067" lon="-0.52018">
        <ele>21</ele>
        <time>2016-01-13T13:45:36Z</time>
      </trkpt>
      <trkpt lat="44.84075" lon="-0.52017">
        <ele>20</ele>
        <time>2016-01-13T13:45:43Z</time>
      </trkpt>
      <trkpt lat="44.84083" lon="-0.52016">
        <ele>20</ele>
        <time>2016-01-13T13:45:49Z</time>
      </trkpt>
      <trkpt lat="44.84091" lon="-0.52015">
        <ele>19</ele>
        <time>2016-01-13T13:45:56Z</time>
      </trkpt>
      <trkpt lat="44.84099" lon="-0.52012">
        <ele>19</ele>
        <time>2016-01-13T13:46:02Z</time>
      </trkpt>
      <trkpt lat="44.84108" lon="-0.52011">
        <ele>19</ele>
        <time>2016-01-13T13:46:10Z</time>
      </trkpt>
      <trkpt lat="44.84115" lon="-0.52009">
        <ele>20</ele>
        <time>2016-01-13T13:46:15Z</time>
      </trkpt>
      <trkpt lat="44.84123" lon="-0.52008">
        <ele>21</ele>
        <time>2016-01-13T13:46:22Z</time>
      </trkpt>
      <trkpt lat="44.84132" lon="-0.52007">
        <ele>19</ele>
        <time>2016-01-13T13:46:29Z</time>
      </trkpt>
      <trkpt lat="44.8414" lon="-0.52006">
        <ele>19</ele>
        <time>2016-01-13T13:46:36Z</time>
      </trkpt>
      <trkpt lat="44.84148" lon="-0.52004">
        <ele>20</ele>
        <time>2016-01-13T13:46:42Z</time>
      </trkpt>
      <trkpt lat="44.84157" lon="-0.52005">
        <ele>20</ele>
        <time>2016-01-13T13:46:48Z</time>
      </trkpt>
      <trkpt lat="44.84165" lon="-0.52005">
        <ele>21</ele>
        <time>2016-01-13T13:46:54Z</time>
      </trkpt>
      <trkpt lat="44.84174" lon="-0.52006">
        <ele>20</ele>
        <time>2016-01-13T13:47:03Z</time>
      </trkpt>
      <trkpt lat="44.84182" lon="-0.52004">
        <ele>20</ele>
        <time>2016-01-13T13:47:08Z</time>
      </trkpt>
      <trkpt lat="44.8419" lon="-0.52002">
        <ele>17</ele>
        <time>2016-01-13T13:47:13Z</time>
      </trkpt>
      <trkpt lat="44.84198" lon="-0.51997">
        <ele>14</ele>
        <time>2016-01-13T13:47:19Z</time>
      </trkpt>
      <trkpt lat="44.84205" lon="-0.52001">
        <ele>14</ele>
        <time>2016-01-13T13:47:31Z</time>
      </trkpt>
      <trkpt lat="44.84208" lon="-0.52011">
        <ele>14</ele>
        <time>2016-01-13T13:47:37Z</time>
      </trkpt>
      <trkpt lat="44.84211" lon="-0.52021">
        <ele>12</ele>
        <time>2016-01-13T13:47:42Z</time>
      </trkpt>
      <trkpt lat="44.84216" lon="-0.5203">
        <ele>15</ele>
        <time>2016-01-13T13:47:47Z</time>
      </trkpt>
      <trkpt lat="44.84217" lon="-0.52043">
        <ele>17</ele>
        <time>2016-01-13T13:47:54Z</time>
      </trkpt>
      <trkpt lat="44.84219" lon="-0.52055">
        <ele>15</ele>
        <time>2016-01-13T13:48:00Z</time>
      </trkpt>
      <trkpt lat="44.84219" lon="-0.52066">
        <ele>18</ele>
        <time>2016-01-13T13:48:06Z</time>
      </trkpt>
      <trkpt lat="44.8422" lon="-0.52079">
        <ele>19</ele>
        <time>2016-01-13T13:48:12Z</time>
      </trkpt>
      <trkpt lat="44.84224" lon="-0.52089">
        <ele>18</ele>
        <time>2016-01-13T13:48:17Z</time>
      </trkpt>
      <trkpt lat="44.84226" lon="-0.521">
        <ele>19</ele>
        <time>2016-01-13T13:48:23Z</time>
      </trkpt>
      <trkpt lat="44.84227" lon="-0.52112">
        <ele>21</ele>
        <time>2016-01-13T13:48:29Z</time>
      </trkpt>
      <trkpt lat="44.84228" lon="-0.52124">
        <ele>21</ele>
        <time>2016-01-13T13:48:36Z</time>
      </trkpt>
      <trkpt lat="44.84228" lon="-0.52135">
        <ele>23</ele>
        <time>2016-01-13T13:48:42Z</time>
      </trkpt>
      <trkpt lat="44.8423" lon="-0.52146">
        <ele>21</ele>
        <time>2016-01-13T13:48:48Z</time>
      </trkpt>
      <trkpt lat="44.84234" lon="-0.52156">
        <ele>19</ele>
        <time>2016-01-13T13:48:54Z</time>
      </trkpt>
      <trkpt lat="44.84237" lon="-0.52168">
        <ele>19</ele>
        <time>2016-01-13T13:49:01Z</time>
      </trkpt>
      <trkpt lat="44.8424" lon="-0.5218">
        <ele>21</ele>
        <time>2016-01-13T13:49:08Z</time>
      </trkpt>
      <trkpt lat="44.84241" lon="-0.52191">
        <ele>20</ele>
        <time>2016-01-13T13:49:14Z</time>
      </trkpt>
      <trkpt lat="44.84243" lon="-0.52203">
        <ele>17</ele>
        <time>2016-01-13T13:49:21Z</time>
      </trkpt>
      <trkpt lat="44.84244" lon="-0.52215">
        <ele>16</ele>
        <time>2016-01-13T13:49:27Z</time>
      </trkpt>
      <trkpt lat="44.84245" lon="-0.52226">
        <ele>16</ele>
        <time>2016-01-13T13:49:32Z</time>
      </trkpt>
      <trkpt lat="44.84245" lon="-0.52237">
        <ele>16</ele>
        <time>2016-01-13T13:49:38Z</time>
      </trkpt>
      <trkpt lat="44.84243" lon="-0.52249">
        <ele>18</ele>
        <time>2016-01-13T13:49:44Z</time>
      </trkpt>
      <trkpt lat="44.8424" lon="-0.5226">
        <ele>20</ele>
        <time>2016-01-13T13:49:51Z</time>
      </trkpt>
      <trkpt lat="44.84235" lon="-0.52269">
        <ele>21</ele>
        <time>2016-01-13T13:49:57Z</time>
      </trkpt>
      <trkpt lat="44.84231" lon="-0.52278">
        <ele>26</ele>
        <time>2016-01-13T13:50:03Z</time>
      </trkpt>
      <trkpt lat="44.84222" lon="-0.52283">
        <ele>24</ele>
        <time>2016-01-13T13:50:09Z</time>
      </trkpt>
      <trkpt lat="44.84214" lon="-0.52283">
        <ele>16</ele>
        <time>2016-01-13T13:50:15Z</time>
      </trkpt>
      <trkpt lat="44.84206" lon="-0.52284">
        <ele>15</ele>
        <time>2016-01-13T13:50:20Z</time>
      </trkpt>
      <trkpt lat="44.84197" lon="-0.52284">
        <ele>18</ele>
        <time>2016-01-13T13:50:25Z</time>
      </trkpt>
      <trkpt lat="44.84189" lon="-0.52279">
        <ele>21</ele>
        <time>2016-01-13T13:50:32Z</time>
      </trkpt>
      <trkpt lat="44.84182" lon="-0.52277">
        <ele>23</ele>
        <time>2016-01-13T13:50:36Z</time>
      </trkpt>
      <trkpt lat="44.84174" lon="-0.52274">
        <ele>24</ele>
        <time>2016-01-13T13:50:41Z</time>
      </trkpt>
      <trkpt lat="44.84166" lon="-0.52269">
        <ele>25</ele>
        <time>2016-01-13T13:50:48Z</time>
      </trkpt>
      <trkpt lat="44.84158" lon="-0.52264">
        <ele>21</ele>
        <time>2016-01-13T13:50:56Z</time>
      </trkpt>
      <trkpt lat="44.8415" lon="-0.52261">
        <ele>19</ele>
        <time>2016-01-13T13:51:03Z</time>
      </trkpt>
      <trkpt lat="44.84142" lon="-0.52258">
        <ele>17</ele>
        <time>2016-01-13T13:51:09Z</time>
      </trkpt>
      <trkpt lat="44.84134" lon="-0.52255">
        <ele>16</ele>
        <time>2016-01-13T13:51:15Z</time>
      </trkpt>
      <trkpt lat="44.84125" lon="-0.52256">
        <ele>14</ele>
        <time>2016-01-13T13:51:23Z</time>
      </trkpt>
      <trkpt lat="44.84117" lon="-0.52254">
        <ele>13</ele>
        <time>2016-01-13T13:51:30Z</time>
      </trkpt>
      <trkpt lat="44.84109" lon="-0.52255">
        <ele>12</ele>
        <time>2016-01-13T13:51:36Z</time>
      </trkpt>
      <trkpt lat="44.84102" lon="-0.52258">
        <ele>12</ele>
        <time>2016-01-13T13:51:41Z</time>
      </trkpt>
      <trkpt lat="44.84095" lon="-0.52266">
        <ele>12</ele>
        <time>2016-01-13T13:51:48Z</time>
      </trkpt>
      <trkpt lat="44.84087" lon="-0.52272">
        <ele>13</ele>
        <time>2016-01-13T13:51:54Z</time>
      </trkpt>
      <trkpt lat="44.84087" lon="-0.52279">
        <ele>11</ele>
        <time>2016-01-13T13:53:33Z</time>
      </trkpt>
      <trkpt lat="44.84088" lon="-0.52293">
        <ele>3</ele>
        <time>2016-01-13T13:53:38Z</time>
      </trkpt>
      <trkpt lat="44.84088" lon="-0.52293">
        <ele>3</ele>
        <time>2016-01-13T13:53:58Z</time>
      </trkpt>
      <trkpt lat="44.84088" lon="-0.52293">
        <ele>3</ele>
        <time>2016-01-13T13:53:59Z</time>
      </trkpt>
    </trkseg>
  </trk>
</gpx>